PWSweather.com
Personal Weather Stations
Station Observations
OZIERI
Punta Idda, OzieriIT

Punta IddaOzieriIT

Lat: 40.584142, Lon: 9.007657999999992

Elevation: 1483

Station Type: Lacrosse ws2350

Latest ConditionsUpdated 6:30:07 PM GMT+01:01 Saturday, Oct 21, 2017
Currently Today's Max Today's Min Today's Average
Temperature 65.1°F18.4°C 76.3°F24.6°C 59.9°F15.5°C 66.7°F19.3°C
Dew Point 57.0°F13.9°C 62.2°F16.8°C 53.4°F11.9°C 56.8°F13.8°C
Winds 0.4 mph WSW0.6 kmh WSW 5.1 mph NNW8.2 kmh NNW - 1.5 mph 2.4 kmh
Wind Gusts 1.6 mph2.6 kmh 12.8 mph20.6 kmh - -
Humidity 75% 81% 48% 71%
Pressure 30.17 in1021.7 mb 30.21 in1023.0 mb 30.15 in1021.0 mb -
Precipitation - 0.06 in1.5 mm - -
Hour Temp Dew Point Humidity Winds Wind Gusts Pressure Precip Precip Rate Daily Precip Total
06:30 PM 65.1°F18.4°C 57.0°F13.9°C 75% 0.4 mph WSW0.6 kmh WSW 1.6 mph2.6 kmh 30.17 in1021.7 mb 0.00 in0.0 mm 0.00 in0.0 mm 0.06 in1.5 mm
06:27 PM 65.3°F18.5°C 57.2°F14.0°C 75% 0.2 mph SSE0.3 kmh SSE -- 30.17 in1021.7 mb 0.00 in0.0 mm 0.00 in0.0 mm 0.06 in1.5 mm
06:25 PM 65.3°F18.5°C 57.2°F14.0°C 75% 0.2 mph SE0.3 kmh SE -- 30.17 in1021.7 mb 0.00 in0.0 mm 0.00 in0.0 mm 0.06 in1.5 mm
06:23 PM 65.5°F18.6°C 57.4°F14.1°C 75% 0.2 mph NNW0.3 kmh NNW -- 30.17 in1021.7 mb 0.00 in0.0 mm 0.00 in0.0 mm 0.06 in1.5 mm
06:21 PM 65.8°F18.8°C 57.4°F14.1°C 74% 0.2 mph SSE0.3 kmh SSE -- 30.17 in1021.7 mb 0.00 in0.0 mm 0.00 in0.0 mm 0.06 in1.5 mm
06:19 PM 66.0°F18.9°C 57.6°F14.2°C 74% 0.4 mph SE0.6 kmh SE 0.9 mph1.4 kmh 30.17 in1021.7 mb 0.00 in0.0 mm 0.00 in0.0 mm 0.06 in1.5 mm
06:16 PM 66.4°F19.1°C 57.9°F14.4°C 74% 0.4 mph S0.6 kmh S 1.3 mph2.1 kmh 30.17 in1021.7 mb 0.00 in0.0 mm 0.00 in0.0 mm 0.06 in1.5 mm
06:14 PM 66.4°F19.1°C 57.9°F14.4°C 74% 0.2 mph SSE0.3 kmh SSE -- 30.17 in1021.7 mb 0.00 in0.0 mm 0.00 in0.0 mm 0.06 in1.5 mm
06:12 PM 66.7°F19.3°C 58.1°F14.5°C 74% 0.2 mph ESE0.3 kmh ESE -- 30.17 in1021.7 mb 0.00 in0.0 mm 0.00 in0.0 mm 0.06 in1.5 mm
06:10 PM 66.7°F19.3°C 58.1°F14.5°C 74% 0.2 mph SE0.3 kmh SE -- 30.17 in1021.7 mb 0.00 in0.0 mm 0.00 in0.0 mm 0.06 in1.5 mm
06:08 PM 66.9°F19.4°C 58.3°F14.6°C 74% 0.4 mph NE0.6 kmh NE -- 30.17 in1021.7 mb 0.00 in0.0 mm 0.00 in0.0 mm 0.06 in1.5 mm
06:05 PM 66.9°F19.4°C 58.3°F14.6°C 74% 0.7 mph WNW1.1 kmh WNW 2.0 mph3.2 kmh 30.17 in1021.7 mb 0.00 in0.0 mm 0.00 in0.0 mm 0.06 in1.5 mm
06:03 PM 66.9°F19.4°C 58.3°F14.6°C 74% 0.7 mph SSW1.1 kmh SSW 1.3 mph2.1 kmh 30.17 in1021.7 mb 0.00 in0.0 mm 0.00 in0.0 mm 0.06 in1.5 mm
06:01 PM 67.1°F19.5°C 58.8°F14.9°C 75% 1.1 mph WNW1.8 kmh WNW 2.9 mph4.7 kmh 30.17 in1021.7 mb 0.00 in0.0 mm 0.00 in0.0 mm 0.06 in1.5 mm
05:59 PM 67.1°F19.5°C 58.8°F14.9°C 75% 0.7 mph W1.1 kmh W 2.0 mph3.2 kmh 30.17 in1021.7 mb 0.00 in0.0 mm 0.00 in0.0 mm 0.06 in1.5 mm
05:57 PM 67.1°F19.5°C 59.4°F15.2°C 76% 0.4 mph WNW0.6 kmh WNW 2.2 mph3.5 kmh 30.17 in1021.7 mb 0.00 in0.0 mm 0.00 in0.0 mm 0.06 in1.5 mm
05:55 PM 67.3°F19.6°C 59.9°F15.5°C 77% 0.2 mph WNW0.3 kmh WNW -- 30.17 in1021.7 mb 0.00 in0.0 mm 0.00 in0.0 mm 0.06 in1.5 mm
05:52 PM 67.5°F19.7°C 60.1°F15.6°C 77% 0.4 mph WSW0.6 kmh WSW 1.6 mph2.6 kmh 30.17 in1021.7 mb 0.00 in0.0 mm 0.00 in0.0 mm 0.06 in1.5 mm
05:50 PM 67.6°F19.8°C 60.3°F15.7°C 77% 0.2 mph 0.3 kmh -- 30.17 in1021.7 mb 0.00 in0.0 mm 0.00 in0.0 mm 0.06 in1.5 mm
05:48 PM 67.8°F19.9°C 60.3°F15.7°C 77% 0.2 mph W0.3 kmh W -- 30.17 in1021.7 mb 0.00 in0.0 mm 0.00 in0.0 mm 0.06 in1.5 mm
05:46 PM 67.8°F19.9°C 60.3°F15.7°C 77% 0.2 mph NNE0.3 kmh NNE -- 30.17 in1021.7 mb 0.00 in0.0 mm 0.00 in0.0 mm 0.06 in1.5 mm
05:43 PM 67.8°F19.9°C 60.3°F15.7°C 77% 0.4 mph WNW0.6 kmh WNW 1.3 mph2.1 kmh 30.16 in1021.3 mb 0.00 in0.0 mm 0.00 in0.0 mm 0.06 in1.5 mm
05:41 PM 67.8°F19.9°C 60.6°F15.9°C 78% 0.2 mph WSW0.3 kmh WSW -- 30.17 in1021.7 mb 0.00 in0.0 mm 0.00 in0.0 mm 0.06 in1.5 mm
05:39 PM 67.8°F19.9°C 60.6°F15.9°C 78% 0.4 mph WNW0.6 kmh WNW 1.6 mph2.6 kmh 30.16 in1021.3 mb 0.00 in0.0 mm 0.00 in0.0 mm 0.06 in1.5 mm
05:37 PM 67.8°F19.9°C 60.6°F15.9°C 78% 0.2 mph WNW0.3 kmh WNW -- 30.17 in1021.7 mb 0.00 in0.0 mm 0.00 in0.0 mm 0.06 in1.5 mm
05:35 PM 68.0°F20.0°C 60.8°F16.0°C 78% 0.2 mph NW0.3 kmh NW -- 30.16 in1021.3 mb 0.00 in0.0 mm 0.00 in0.0 mm 0.06 in1.5 mm
05:32 PM 68.2°F20.1°C 61.0°F16.1°C 78% 0.2 mph NNE0.3 kmh NNE -- 30.16 in1021.3 mb 0.00 in0.0 mm 0.00 in0.0 mm 0.06 in1.5 mm
05:30 PM 68.2°F20.1°C 61.0°F16.1°C 78% 0.2 mph NNW0.3 kmh NNW -- 30.16 in1021.3 mb 0.00 in0.0 mm 0.00 in0.0 mm 0.06 in1.5 mm
05:28 PM 68.4°F20.2°C 61.2°F16.2°C 78% 0.2 mph 0.3 kmh -- 30.16 in1021.3 mb 0.00 in0.0 mm 0.00 in0.0 mm 0.06 in1.5 mm
05:26 PM 68.4°F20.2°C 61.2°F16.2°C 78% 0.2 mph NNE0.3 kmh NNE -- 30.16 in1021.3 mb 0.00 in0.0 mm 0.00 in0.0 mm 0.06 in1.5 mm
05:24 PM 68.4°F20.2°C 61.5°F16.4°C 79% 0.2 mph NNW0.3 kmh NNW -- 30.17 in1021.7 mb 0.00 in0.0 mm 0.00 in0.0 mm 0.06 in1.5 mm
05:22 PM 68.5°F20.3°C 61.7°F16.5°C 79% 0.4 mph W0.6 kmh W -- 30.16 in1021.3 mb 0.00 in0.0 mm 0.00 in0.0 mm 0.06 in1.5 mm
05:19 PM 68.5°F20.3°C 61.7°F16.5°C 79% 0.9 mph NNW1.4 kmh NNW 1.6 mph2.6 kmh 30.16 in1021.3 mb 0.00 in0.0 mm 0.00 in0.0 mm 0.06 in1.5 mm
05:17 PM 68.4°F20.2°C 61.5°F16.4°C 79% 1.1 mph 1.8 kmh 3.1 mph5.0 kmh 30.16 in1021.3 mb 0.00 in0.0 mm 0.00 in0.0 mm 0.06 in1.5 mm
05:15 PM 68.5°F20.3°C 61.7°F16.5°C 79% 0.4 mph NNE0.6 kmh NNE 0.9 mph1.4 kmh 30.16 in1021.3 mb 0.00 in0.0 mm 0.00 in0.0 mm 0.06 in1.5 mm
05:13 PM 68.5°F20.3°C 61.7°F16.5°C 79% 0.7 mph NNE1.1 kmh NNE 1.1 mph1.8 kmh 30.16 in1021.3 mb 0.00 in0.0 mm 0.00 in0.0 mm 0.06 in1.5 mm
05:10 PM 68.5°F20.3°C 61.7°F16.5°C 79% 1.1 mph NW1.8 kmh NW 2.2 mph3.5 kmh 30.17 in1021.7 mb 0.00 in0.0 mm 0.00 in0.0 mm 0.06 in1.5 mm
05:08 PM 68.4°F20.2°C 61.5°F16.4°C 79% 1.3 mph SW2.1 kmh SW 2.5 mph4.0 kmh 30.16 in1021.3 mb 0.00 in0.0 mm 0.00 in0.0 mm 0.06 in1.5 mm
05:06 PM 68.4°F20.2°C 61.9°F16.6°C 80% 2.2 mph NNE3.5 kmh NNE 3.6 mph5.8 kmh 30.16 in1021.3 mb 0.00 in0.0 mm 0.00 in0.0 mm 0.06 in1.5 mm
05:04 PM 68.4°F20.2°C 61.9°F16.6°C 80% 1.8 mph NNW2.9 kmh NNW 3.8 mph6.1 kmh 30.16 in1021.3 mb 0.00 in0.0 mm 0.00 in0.0 mm 0.06 in1.5 mm
05:01 PM 68.4°F20.2°C 62.2°F16.8°C 81% 0.9 mph ENE1.4 kmh ENE 2.9 mph4.7 kmh 30.16 in1021.3 mb 0.00 in0.0 mm 0.00 in0.0 mm 0.06 in1.5 mm
04:59 PM 68.2°F20.1°C 62.1°F16.7°C 81% 0.9 mph SSW1.4 kmh SSW 2.2 mph3.5 kmh 30.16 in1021.3 mb 0.00 in0.0 mm 0.00 in0.0 mm 0.06 in1.5 mm
04:57 PM 68.2°F20.1°C 62.1°F16.7°C 81% 0.7 mph NNW1.1 kmh NNW 2.2 mph3.5 kmh 30.16 in1021.3 mb 0.00 in0.0 mm 0.00 in0.0 mm 0.06 in1.5 mm
04:54 PM 68.0°F20.0°C 61.9°F16.6°C 81% 0.2 mph E0.3 kmh E -- 30.16 in1021.3 mb 0.00 in0.0 mm 0.00 in0.0 mm 0.06 in1.5 mm
04:52 PM 68.0°F20.0°C 61.9°F16.6°C 81% 0.2 mph SE0.3 kmh SE -- 30.16 in1021.3 mb 0.00 in0.0 mm 0.00 in0.0 mm 0.06 in1.5 mm
04:50 PM 67.8°F19.9°C 61.7°F16.5°C 81% 0.2 mph WNW0.3 kmh WNW -- 30.16 in1021.3 mb 0.00 in0.0 mm 0.00 in0.0 mm 0.06 in1.5 mm
04:48 PM 67.8°F19.9°C 61.3°F16.3°C 80% 0.2 mph 0.3 kmh -- 30.16 in1021.3 mb 0.00 in0.0 mm 0.00 in0.0 mm 0.06 in1.5 mm
04:46 PM 67.8°F19.9°C 61.3°F16.3°C 80% 0.2 mph ENE0.3 kmh ENE -- 30.16 in1021.3 mb 0.00 in0.0 mm 0.00 in0.0 mm 0.06 in1.5 mm
04:43 PM 67.6°F19.8°C 61.2°F16.2°C 80% 0.2 mph E0.3 kmh E -- 30.16 in1021.3 mb 0.00 in0.0 mm 0.00 in0.0 mm 0.06 in1.5 mm
04:41 PM 67.6°F19.8°C 61.2°F16.2°C 80% 0.4 mph SE0.6 kmh SE -- 30.16 in1021.3 mb 0.00 in0.0 mm 0.00 in0.0 mm 0.06 in1.5 mm
04:39 PM 67.6°F19.8°C 61.2°F16.2°C 80% 0.7 mph SE1.1 kmh SE 1.6 mph2.6 kmh 30.16 in1021.3 mb 0.02 in0.5 mm 0.00 in0.0 mm 0.06 in1.5 mm
04:37 PM 67.6°F19.8°C 61.2°F16.2°C 80% 0.7 mph ESE1.1 kmh ESE 1.6 mph2.6 kmh 30.16 in1021.3 mb 0.02 in0.5 mm 0.00 in0.0 mm 0.06 in1.5 mm
04:34 PM 67.6°F19.8°C 61.2°F16.2°C 80% 0.7 mph E1.1 kmh E 0.9 mph1.4 kmh 30.16 in1021.3 mb 0.02 in0.5 mm 0.00 in0.0 mm 0.06 in1.5 mm
04:32 PM 67.6°F19.8°C 61.0°F16.1°C 79% 1.1 mph SSE1.8 kmh SSE 1.6 mph2.6 kmh 30.16 in1021.3 mb 0.02 in0.5 mm 0.00 in0.0 mm 0.06 in1.5 mm
04:30 PM 67.8°F19.9°C 61.0°F16.1°C 79% 1.1 mph S1.8 kmh S 1.3 mph2.1 kmh 30.16 in1021.3 mb 0.02 in0.5 mm 0.00 in0.0 mm 0.06 in1.5 mm
04:28 PM 67.8°F19.9°C 60.6°F15.9°C 78% 1.8 mph SE2.9 kmh SE 2.7 mph4.3 kmh 30.16 in1021.3 mb 0.02 in0.5 mm 0.00 in0.0 mm 0.02 in0.5 mm
04:26 PM 67.8°F19.9°C 60.6°F15.9°C 78% 1.8 mph ESE2.9 kmh ESE 3.4 mph5.5 kmh 30.16 in1021.3 mb 0.02 in0.5 mm 0.00 in0.0 mm 0.02 in0.5 mm
04:23 PM 68.4°F20.2°C 61.2°F16.2°C 78% 1.3 mph SSE2.1 kmh SSE 3.4 mph5.5 kmh 30.16 in1021.3 mb 0.02 in0.5 mm 0.00 in0.0 mm 0.02 in0.5 mm
04:21 PM 68.4°F20.2°C 60.8°F16.0°C 77% 0.7 mph SE1.1 kmh SE 1.6 mph2.6 kmh 30.16 in1021.3 mb 0.02 in0.5 mm 0.00 in0.0 mm 0.02 in0.5 mm
04:19 PM 68.4°F20.2°C 60.8°F16.0°C 77% 0.2 mph E0.3 kmh E -- 30.16 in1021.3 mb 0.02 in0.5 mm 0.00 in0.0 mm 0.02 in0.5 mm
04:17 PM 68.4°F20.2°C 60.8°F16.0°C 77% 0.2 mph ENE0.3 kmh ENE 0.7 mph1.1 kmh 30.16 in1021.3 mb 0.02 in0.5 mm 0.00 in0.0 mm 0.02 in0.5 mm
04:14 PM 68.4°F20.2°C 60.8°F16.0°C 77% 0.4 mph ENE0.6 kmh ENE 0.7 mph1.1 kmh 30.16 in1021.3 mb 0.02 in0.5 mm 0.00 in0.0 mm 0.02 in0.5 mm
04:12 PM 68.4°F20.2°C 60.8°F16.0°C 77% 0.4 mph ENE0.6 kmh ENE 1.3 mph2.1 kmh 30.16 in1021.3 mb 0.02 in0.5 mm 0.00 in0.0 mm 0.02 in0.5 mm
04:10 PM 68.4°F20.2°C 60.8°F16.0°C 77% 0.4 mph ENE0.6 kmh ENE 1.1 mph1.8 kmh 30.17 in1021.7 mb 0.02 in0.5 mm 0.00 in0.0 mm 0.02 in0.5 mm
04:08 PM 68.4°F20.2°C 60.8°F16.0°C 77% 0.7 mph NE1.1 kmh NE -- 30.16 in1021.3 mb 0.02 in0.5 mm 0.00 in0.0 mm 0.02 in0.5 mm
04:06 PM 68.4°F20.2°C 61.2°F16.2°C 78% 1.1 mph 1.8 kmh 2.9 mph4.7 kmh 30.16 in1021.3 mb 0.02 in0.5 mm 0.00 in0.0 mm 0.02 in0.5 mm
04:03 PM 68.4°F20.2°C 60.8°F16.0°C 77% 1.1 mph NNE1.8 kmh NNE 1.8 mph2.9 kmh 30.16 in1021.3 mb 0.02 in0.5 mm 0.00 in0.0 mm 0.02 in0.5 mm
04:01 PM 68.4°F20.2°C 60.8°F16.0°C 77% 2.0 mph 3.2 kmh 2.9 mph4.7 kmh 30.16 in1021.3 mb 0.02 in0.5 mm 0.00 in0.0 mm 0.02 in0.5 mm
03:59 PM 68.4°F20.2°C 60.8°F16.0°C 77% 2.2 mph 3.5 kmh 5.1 mph8.2 kmh 30.16 in1021.3 mb 0.02 in0.5 mm 0.00 in0.0 mm 0.02 in0.5 mm
03:57 PM 68.5°F20.3°C 61.0°F16.1°C 77% 1.8 mph NNW2.9 kmh NNW 3.8 mph6.1 kmh 30.17 in1021.7 mb 0.02 in0.5 mm 0.00 in0.0 mm 0.02 in0.5 mm
03:55 PM 68.5°F20.3°C 61.0°F16.1°C 77% 1.8 mph SW2.9 kmh SW 4.0 mph6.4 kmh 30.17 in1021.7 mb 0.02 in0.5 mm 0.00 in0.0 mm 0.02 in0.5 mm
03:53 PM 68.5°F20.3°C 60.6°F15.9°C 76% 2.7 mph NNW4.3 kmh NNW 3.8 mph6.1 kmh 30.17 in1021.7 mb 0.02 in0.5 mm 0.00 in0.0 mm 0.02 in0.5 mm
03:50 PM 68.7°F20.4°C 60.8°F16.0°C 76% 3.1 mph NW5.0 kmh NW 4.5 mph7.2 kmh 30.17 in1021.7 mb 0.02 in0.5 mm 0.00 in0.0 mm 0.02 in0.5 mm
03:48 PM 69.1°F20.6°C 60.4°F15.8°C 74% 3.6 mph 5.8 kmh 6.7 mph10.8 kmh 30.16 in1021.3 mb 0.02 in0.5 mm 0.00 in0.0 mm 0.02 in0.5 mm
03:46 PM 69.4°F20.8°C 60.4°F15.8°C 73% 2.2 mph 3.5 kmh 3.6 mph5.8 kmh 30.16 in1021.3 mb 0.02 in0.5 mm 0.00 in0.0 mm 0.02 in0.5 mm
03:43 PM 69.8°F21.0°C 60.4°F15.8°C 72% 3.6 mph WNW5.8 kmh WNW 8.3 mph13.4 kmh 30.16 in1021.3 mb 0.02 in0.5 mm 0.60 in15.2 mm 0.02 in0.5 mm
03:41 PM 70.3°F21.3°C 60.4°F15.8°C 71% 2.5 mph 4.0 kmh 8.3 mph13.4 kmh 30.16 in1021.3 mb 0.00 in0.0 mm 0.00 in0.0 mm 0.02 in0.5 mm
03:39 PM 70.9°F21.6°C 60.6°F15.9°C 70% 3.1 mph 5.0 kmh 7.4 mph11.9 kmh 30.16 in1021.3 mb 0.00 in0.0 mm 0.00 in0.0 mm 0.00 in0.0 mm
03:37 PM 70.9°F21.6°C 60.3°F15.7°C 69% 3.1 mph NE5.0 kmh NE 6.0 mph9.7 kmh 30.16 in1021.3 mb 0.00 in0.0 mm 0.00 in0.0 mm 0.00 in0.0 mm
03:34 PM 71.1°F21.7°C 59.9°F15.5°C 68% 5.1 mph NNW8.2 kmh NNW 12.8 mph20.6 kmh 30.16 in1021.3 mb 0.00 in0.0 mm 0.00 in0.0 mm 0.00 in0.0 mm
03:32 PM 71.2°F21.8°C 60.1°F15.6°C 68% 4.0 mph W6.4 kmh W 11.2 mph18.0 kmh 30.16 in1021.3 mb 0.00 in0.0 mm 0.00 in0.0 mm 0.00 in0.0 mm
03:30 PM 71.4°F21.9°C 59.9°F15.5°C 67% 3.4 mph NW5.5 kmh NW 4.5 mph7.2 kmh 30.16 in1021.3 mb 0.00 in0.0 mm 0.00 in0.0 mm 0.00 in0.0 mm
03:28 PM 71.4°F21.9°C 59.5°F15.3°C 66% 4.0 mph NNW6.4 kmh NNW 8.1 mph13.0 kmh 30.16 in1021.3 mb 0.00 in0.0 mm 0.00 in0.0 mm 0.00 in0.0 mm
03:26 PM 71.4°F21.9°C 59.5°F15.3°C 66% 4.7 mph 7.6 kmh 8.3 mph13.4 kmh 30.16 in1021.3 mb 0.00 in0.0 mm 0.00 in0.0 mm 0.00 in0.0 mm
03:24 PM 71.4°F21.9°C 59.5°F15.3°C 66% 3.8 mph WNW6.1 kmh WNW 6.3 mph10.1 kmh 30.16 in1021.3 mb 0.00 in0.0 mm 0.00 in0.0 mm 0.00 in0.0 mm
03:21 PM 71.8°F22.1°C 59.4°F15.2°C 65% 3.6 mph NNW5.8 kmh NNW 5.4 mph8.7 kmh 30.16 in1021.3 mb 0.00 in0.0 mm 0.00 in0.0 mm 0.00 in0.0 mm
03:19 PM 71.8°F22.1°C 59.4°F15.2°C 65% 2.9 mph WNW4.7 kmh WNW 6.7 mph10.8 kmh 30.16 in1021.3 mb 0.00 in0.0 mm 0.00 in0.0 mm 0.00 in0.0 mm
03:17 PM 72.0°F22.2°C 59.5°F15.3°C 65% 2.5 mph WNW4.0 kmh WNW 7.2 mph11.6 kmh 30.16 in1021.3 mb 0.00 in0.0 mm 0.00 in0.0 mm 0.00 in0.0 mm
03:15 PM 72.1°F22.3°C 59.4°F15.2°C 64% 3.1 mph NNW5.0 kmh NNW 4.7 mph7.6 kmh 30.16 in1021.3 mb 0.00 in0.0 mm 0.00 in0.0 mm 0.00 in0.0 mm
03:13 PM 72.3°F22.4°C 59.5°F15.3°C 64% 3.6 mph 5.8 kmh 6.0 mph9.7 kmh 30.16 in1021.3 mb 0.00 in0.0 mm 0.00 in0.0 mm 0.00 in0.0 mm
03:11 PM 72.3°F22.4°C 59.0°F15.0°C 63% 2.9 mph NNW4.7 kmh NNW 5.8 mph9.3 kmh 30.16 in1021.3 mb 0.00 in0.0 mm 0.00 in0.0 mm 0.00 in0.0 mm
03:09 PM 72.5°F22.5°C 59.2°F15.1°C 63% 2.7 mph NW4.3 kmh NW 3.4 mph5.5 kmh 30.16 in1021.3 mb 0.00 in0.0 mm 0.00 in0.0 mm 0.00 in0.0 mm
03:07 PM 72.7°F22.6°C 59.4°F15.2°C 63% 3.4 mph SW5.5 kmh SW 5.6 mph9.0 kmh 30.16 in1021.3 mb 0.00 in0.0 mm 0.00 in0.0 mm 0.00 in0.0 mm
03:04 PM 73.0°F22.8°C 59.2°F15.1°C 62% 3.4 mph W5.5 kmh W 5.1 mph8.2 kmh 30.17 in1021.7 mb 0.00 in0.0 mm 0.00 in0.0 mm 0.00 in0.0 mm
03:02 PM 73.2°F22.9°C 59.0°F15.0°C 61% 4.3 mph 6.9 kmh 10.7 mph17.2 kmh 30.17 in1021.7 mb 0.00 in0.0 mm 0.00 in0.0 mm 0.00 in0.0 mm
03:00 PM 73.4°F23.0°C 58.6°F14.8°C 60% 1.8 mph ESE2.9 kmh ESE -- 30.17 in1021.7 mb 0.00 in0.0 mm 0.00 in0.0 mm 0.00 in0.0 mm
02:58 PM 73.6°F23.1°C 58.8°F14.9°C 60% 3.6 mph 5.8 kmh 7.6 mph12.2 kmh 30.16 in1021.3 mb 0.00 in0.0 mm 0.00 in0.0 mm 0.00 in0.0 mm
02:55 PM 73.8°F23.2°C 58.5°F14.7°C 59% 3.8 mph 6.1 kmh 7.2 mph11.6 kmh 30.16 in1021.3 mb 0.00 in0.0 mm 0.00 in0.0 mm 0.00 in0.0 mm
02:53 PM 73.9°F23.3°C 58.3°F14.6°C 58% 4.9 mph NW7.9 kmh NW 10.5 mph16.9 kmh 30.16 in1021.3 mb 0.00 in0.0 mm 0.00 in0.0 mm 0.00 in0.0 mm
02:51 PM 74.1°F23.4°C 57.9°F14.4°C 57% 4.0 mph NW6.4 kmh NW 7.2 mph11.6 kmh 30.16 in1021.3 mb 0.00 in0.0 mm 0.00 in0.0 mm 0.00 in0.0 mm
02:49 PM 74.5°F23.6°C 57.7°F14.3°C 56% 4.0 mph 6.4 kmh 8.3 mph13.4 kmh 30.16 in1021.3 mb 0.00 in0.0 mm 0.00 in0.0 mm 0.00 in0.0 mm
02:46 PM 74.7°F23.7°C 57.4°F14.1°C 55% 3.8 mph ESE6.1 kmh ESE 10.5 mph16.9 kmh 30.16 in1021.3 mb 0.00 in0.0 mm 0.00 in0.0 mm 0.00 in0.0 mm
02:44 PM 75.0°F23.9°C 57.7°F14.3°C 55% 4.3 mph NNW6.9 kmh NNW 6.7 mph10.8 kmh 30.16 in1021.3 mb 0.00 in0.0 mm 0.00 in0.0 mm 0.00 in0.0 mm
02:42 PM 75.4°F24.1°C 58.1°F14.5°C 55% 3.6 mph WNW5.8 kmh WNW 8.1 mph13.0 kmh 30.16 in1021.3 mb 0.00 in0.0 mm 0.00 in0.0 mm 0.00 in0.0 mm
02:40 PM 75.4°F24.1°C 57.0°F13.9°C 53% 2.9 mph NW4.7 kmh NW 8.3 mph13.4 kmh 30.16 in1021.3 mb 0.00 in0.0 mm 0.00 in0.0 mm 0.00 in0.0 mm
02:37 PM 75.6°F24.2°C 56.1°F13.4°C 51% 2.7 mph WSW4.3 kmh WSW 8.1 mph13.0 kmh 30.16 in1021.3 mb 0.00 in0.0 mm 0.00 in0.0 mm 0.00 in0.0 mm
02:35 PM 75.9°F24.4°C 55.9°F13.3°C 50% 2.2 mph 3.5 kmh 5.1 mph8.2 kmh 30.16 in1021.3 mb 0.00 in0.0 mm 0.00 in0.0 mm 0.00 in0.0 mm
02:33 PM 75.9°F24.4°C 56.5°F13.6°C 51% 1.6 mph NNW2.6 kmh NNW 3.8 mph6.1 kmh 30.16 in1021.3 mb 0.00 in0.0 mm 0.00 in0.0 mm 0.00 in0.0 mm
02:31 PM 75.7°F24.3°C 56.3°F13.5°C 51% 1.6 mph NW2.6 kmh NW 4.0 mph6.4 kmh 30.15 in1021.0 mb 0.00 in0.0 mm 0.00 in0.0 mm 0.00 in0.0 mm
02:29 PM 75.7°F24.3°C 56.3°F13.5°C 51% 2.2 mph NW3.5 kmh NW 3.8 mph6.1 kmh 30.16 in1021.3 mb 0.00 in0.0 mm 0.00 in0.0 mm 0.00 in0.0 mm
02:27 PM 75.7°F24.3°C 56.3°F13.5°C 51% 2.0 mph WSW3.2 kmh WSW 4.0 mph6.4 kmh 30.16 in1021.3 mb 0.00 in0.0 mm 0.00 in0.0 mm 0.00 in0.0 mm
02:25 PM 75.9°F24.4°C 56.5°F13.6°C 51% 2.2 mph NNW3.5 kmh NNW 4.3 mph6.9 kmh 30.16 in1021.3 mb 0.00 in0.0 mm 0.00 in0.0 mm 0.00 in0.0 mm
02:22 PM 76.1°F24.5°C 57.2°F14.0°C 52% 1.1 mph 1.8 kmh 3.6 mph5.8 kmh 30.16 in1021.3 mb 0.00 in0.0 mm 0.00 in0.0 mm 0.00 in0.0 mm
02:20 PM 75.9°F24.4°C 57.0°F13.9°C 52% 0.7 mph NNW1.1 kmh NNW 1.6 mph2.6 kmh 30.16 in1021.3 mb 0.00 in0.0 mm 0.00 in0.0 mm 0.00 in0.0 mm
02:18 PM 75.7°F24.3°C 56.8°F13.8°C 52% 0.9 mph WSW1.4 kmh WSW 1.6 mph2.6 kmh 30.16 in1021.3 mb 0.00 in0.0 mm 0.00 in0.0 mm 0.00 in0.0 mm
02:16 PM 75.7°F24.3°C 56.8°F13.8°C 52% 1.6 mph NNW2.6 kmh NNW 2.0 mph3.2 kmh 30.16 in1021.3 mb 0.00 in0.0 mm 0.00 in0.0 mm 0.00 in0.0 mm
02:14 PM 75.6°F24.2°C 56.1°F13.4°C 51% 2.0 mph NW3.2 kmh NW 3.8 mph6.1 kmh 30.16 in1021.3 mb 0.00 in0.0 mm 0.00 in0.0 mm 0.00 in0.0 mm
02:11 PM 75.9°F24.4°C 56.5°F13.6°C 51% 2.9 mph W4.7 kmh W 6.5 mph10.5 kmh 30.17 in1021.7 mb 0.00 in0.0 mm 0.00 in0.0 mm 0.00 in0.0 mm
02:09 PM 76.1°F24.5°C 56.1°F13.4°C 50% 2.2 mph 3.5 kmh 6.3 mph10.1 kmh 30.17 in1021.7 mb 0.00 in0.0 mm 0.00 in0.0 mm 0.00 in0.0 mm
02:07 PM 76.1°F24.5°C 56.7°F13.7°C 51% 2.0 mph NW3.2 kmh NW 5.1 mph8.2 kmh 30.17 in1021.7 mb 0.00 in0.0 mm 0.00 in0.0 mm 0.00 in0.0 mm
02:05 PM 76.3°F24.6°C 56.8°F13.8°C 51% 2.9 mph NW4.7 kmh NW 5.4 mph8.7 kmh 30.17 in1021.7 mb 0.00 in0.0 mm 0.00 in0.0 mm 0.00 in0.0 mm
02:02 PM 76.3°F24.6°C 56.8°F13.8°C 51% 2.5 mph WNW4.0 kmh WNW 5.8 mph9.3 kmh 30.17 in1021.7 mb 0.00 in0.0 mm 0.00 in0.0 mm 0.00 in0.0 mm
02:00 PM 76.3°F24.6°C 56.3°F13.5°C 50% 2.2 mph W3.5 kmh W 5.4 mph8.7 kmh 30.17 in1021.7 mb 0.00 in0.0 mm 0.00 in0.0 mm 0.00 in0.0 mm
01:58 PM 76.3°F24.6°C 56.8°F13.8°C 51% 2.7 mph WNW4.3 kmh WNW 7.4 mph11.9 kmh 30.17 in1021.7 mb 0.00 in0.0 mm 0.00 in0.0 mm 0.00 in0.0 mm
01:56 PM 76.3°F24.6°C 56.3°F13.5°C 50% 1.6 mph SW2.6 kmh SW 4.5 mph7.2 kmh 30.17 in1021.7 mb 0.00 in0.0 mm 0.00 in0.0 mm 0.00 in0.0 mm
01:53 PM 76.3°F24.6°C 56.3°F13.5°C 50% 1.6 mph 2.6 kmh 2.5 mph4.0 kmh 30.17 in1021.7 mb 0.00 in0.0 mm 0.00 in0.0 mm 0.00 in0.0 mm
01:51 PM 76.3°F24.6°C 56.3°F13.5°C 50% 1.8 mph NNW2.9 kmh NNW 3.6 mph5.8 kmh 30.17 in1021.7 mb 0.00 in0.0 mm 0.00 in0.0 mm 0.00 in0.0 mm
01:49 PM 76.3°F24.6°C 56.3°F13.5°C 50% 1.6 mph 2.6 kmh 5.1 mph8.2 kmh 30.17 in1021.7 mb 0.00 in0.0 mm 0.00 in0.0 mm 0.00 in0.0 mm
01:47 PM 76.3°F24.6°C 56.3°F13.5°C 50% 1.3 mph NNE2.1 kmh NNE 3.1 mph5.0 kmh 30.17 in1021.7 mb 0.00 in0.0 mm 0.00 in0.0 mm 0.00 in0.0 mm
01:44 PM 76.3°F24.6°C 56.3°F13.5°C 50% 1.1 mph WNW1.8 kmh WNW 2.9 mph4.7 kmh 30.17 in1021.7 mb 0.00 in0.0 mm 0.00 in0.0 mm 0.00 in0.0 mm
01:42 PM 76.1°F24.5°C 56.1°F13.4°C 50% 1.6 mph W2.6 kmh W 1.3 mph2.1 kmh 30.17 in1021.7 mb 0.00 in0.0 mm 0.00 in0.0 mm 0.00 in0.0 mm
01:40 PM 75.9°F24.4°C 55.4°F13.0°C 49% 2.2 mph WNW3.5 kmh WNW 3.6 mph5.8 kmh 30.17 in1021.7 mb 0.00 in0.0 mm 0.00 in0.0 mm 0.00 in0.0 mm
01:38 PM 75.9°F24.4°C 55.9°F13.3°C 50% 2.2 mph W3.5 kmh W 4.3 mph6.9 kmh 30.17 in1021.7 mb 0.00 in0.0 mm 0.00 in0.0 mm 0.00 in0.0 mm
01:35 PM 75.6°F24.2°C 55.0°F12.8°C 49% 1.8 mph SW2.9 kmh SW 7.2 mph11.6 kmh 30.17 in1021.7 mb 0.00 in0.0 mm 0.00 in0.0 mm 0.00 in0.0 mm
01:33 PM 75.6°F24.2°C 55.0°F12.8°C 49% 0.9 mph 1.4 kmh 2.9 mph4.7 kmh 30.17 in1021.7 mb 0.00 in0.0 mm 0.00 in0.0 mm 0.00 in0.0 mm
01:31 PM 75.4°F24.1°C 54.9°F12.7°C 49% 1.1 mph 1.8 kmh 1.8 mph2.9 kmh 30.17 in1021.7 mb 0.00 in0.0 mm 0.00 in0.0 mm 0.00 in0.0 mm
01:28 PM 75.2°F24.0°C 54.7°F12.6°C 49% 1.8 mph WNW2.9 kmh WNW 4.7 mph7.6 kmh 30.17 in1021.7 mb 0.00 in0.0 mm 0.00 in0.0 mm 0.00 in0.0 mm
01:26 PM 75.0°F23.9°C 54.5°F12.5°C 49% 1.6 mph NNW2.6 kmh NNW 2.2 mph3.5 kmh 30.17 in1021.7 mb 0.00 in0.0 mm 0.00 in0.0 mm 0.00 in0.0 mm
01:24 PM 75.0°F23.9°C 54.5°F12.5°C 49% 1.8 mph NNW2.9 kmh NNW 4.3 mph6.9 kmh 30.17 in1021.7 mb 0.00 in0.0 mm 0.00 in0.0 mm 0.00 in0.0 mm
01:22 PM 75.0°F23.9°C 54.5°F12.5°C 49% 2.7 mph NNE4.3 kmh NNE 7.2 mph11.6 kmh 30.17 in1021.7 mb 0.00 in0.0 mm 0.00 in0.0 mm 0.00 in0.0 mm
01:20 PM 75.0°F23.9°C 54.5°F12.5°C 49% 2.7 mph NNW4.3 kmh NNW 5.8 mph9.3 kmh 30.17 in1021.7 mb 0.00 in0.0 mm 0.00 in0.0 mm 0.00 in0.0 mm
01:17 PM 75.7°F24.3°C 55.2°F12.9°C 49% 2.9 mph NNW4.7 kmh NNW 8.3 mph13.4 kmh 30.17 in1021.7 mb 0.00 in0.0 mm 0.00 in0.0 mm 0.00 in0.0 mm
01:15 PM 75.7°F24.3°C 55.8°F13.2°C 50% 1.1 mph SSW1.8 kmh SSW 3.4 mph5.5 kmh 30.17 in1021.7 mb 0.00 in0.0 mm 0.00 in0.0 mm 0.00 in0.0 mm
01:13 PM 75.6°F24.2°C 55.6°F13.1°C 50% 0.7 mph NW1.1 kmh NW 0.9 mph1.4 kmh 30.18 in1022.0 mb 0.00 in0.0 mm 0.00 in0.0 mm 0.00 in0.0 mm
01:11 PM 75.4°F24.1°C 54.3°F12.4°C 48% 1.1 mph NW1.8 kmh NW 0.9 mph1.4 kmh 30.17 in1021.7 mb 0.00 in0.0 mm 0.00 in0.0 mm 0.00 in0.0 mm
01:09 PM 75.4°F24.1°C 54.3°F12.4°C 48% 2.0 mph SW3.2 kmh SW 4.7 mph7.6 kmh 30.18 in1022.0 mb 0.00 in0.0 mm 0.00 in0.0 mm 0.00 in0.0 mm
01:06 PM 75.2°F24.0°C 55.8°F13.2°C 51% 1.3 mph SSW2.1 kmh SSW 3.8 mph6.1 kmh 30.18 in1022.0 mb 0.00 in0.0 mm 0.00 in0.0 mm 0.00 in0.0 mm
01:04 PM 75.0°F23.9°C 55.6°F13.1°C 51% 1.3 mph WSW2.1 kmh WSW 3.1 mph5.0 kmh 30.18 in1022.0 mb 0.00 in0.0 mm 0.00 in0.0 mm 0.00 in0.0 mm
01:02 PM 75.0°F23.9°C 56.1°F13.4°C 52% 1.1 mph NNW1.8 kmh NNW 1.3 mph2.1 kmh 30.18 in1022.0 mb 0.00 in0.0 mm 0.00 in0.0 mm 0.00 in0.0 mm
01:00 PM 74.8°F23.8°C 56.5°F13.6°C 53% 1.3 mph NNW2.1 kmh NNW 2.2 mph3.5 kmh 30.18 in1022.0 mb 0.00 in0.0 mm 0.00 in0.0 mm 0.00 in0.0 mm
12:58 PM 74.5°F23.6°C 55.8°F13.2°C 52% 1.8 mph NNW2.9 kmh NNW 4.0 mph6.4 kmh 30.18 in1022.0 mb 0.00 in0.0 mm 0.00 in0.0 mm 0.00 in0.0 mm
12:55 PM 74.5°F23.6°C 56.3°F13.5°C 53% 1.1 mph WSW1.8 kmh WSW 2.7 mph4.3 kmh 30.18 in1022.0 mb 0.00 in0.0 mm 0.00 in0.0 mm 0.00 in0.0 mm
12:53 PM 74.5°F23.6°C 56.3°F13.5°C 53% 2.0 mph NNW3.2 kmh NNW 6.3 mph10.1 kmh 30.18 in1022.0 mb 0.00 in0.0 mm 0.00 in0.0 mm 0.00 in0.0 mm
12:51 PM 74.7°F23.7°C 56.5°F13.6°C 53% 1.3 mph NW2.1 kmh NW 2.0 mph3.2 kmh 30.19 in1022.4 mb 0.00 in0.0 mm 0.00 in0.0 mm 0.00 in0.0 mm
12:49 PM 74.8°F23.8°C 56.1°F13.4°C 52% 2.2 mph NNW3.5 kmh NNW 7.2 mph11.6 kmh 30.19 in1022.4 mb 0.00 in0.0 mm 0.00 in0.0 mm 0.00 in0.0 mm
12:47 PM 75.0°F23.9°C 56.7°F13.7°C 53% 1.3 mph W2.1 kmh W 3.6 mph5.8 kmh 30.19 in1022.4 mb 0.00 in0.0 mm 0.00 in0.0 mm 0.00 in0.0 mm
12:44 PM 74.8°F23.8°C 57.0°F13.9°C 54% 1.6 mph SW2.6 kmh SW 4.0 mph6.4 kmh 30.19 in1022.4 mb 0.00 in0.0 mm 0.00 in0.0 mm 0.00 in0.0 mm
12:42 PM 74.5°F23.6°C 57.7°F14.3°C 56% 0.7 mph NW1.1 kmh NW 1.6 mph2.6 kmh 30.19 in1022.4 mb 0.00 in0.0 mm 0.00 in0.0 mm 0.00 in0.0 mm
12:40 PM 73.9°F23.3°C 56.8°F13.8°C 55% 0.7 mph ESE1.1 kmh ESE 2.0 mph3.2 kmh 30.19 in1022.4 mb 0.00 in0.0 mm 0.00 in0.0 mm 0.00 in0.0 mm
12:38 PM 74.1°F23.4°C 56.8°F13.8°C 55% 0.9 mph NW1.4 kmh NW 2.2 mph3.5 kmh 30.19 in1022.4 mb 0.00 in0.0 mm 0.00 in0.0 mm 0.00 in0.0 mm
12:36 PM 74.1°F23.4°C 57.9°F14.4°C 57% 0.4 mph W0.6 kmh W 2.7 mph4.3 kmh 30.19 in1022.4 mb 0.00 in0.0 mm 0.00 in0.0 mm 0.00 in0.0 mm
12:33 PM 73.8°F23.2°C 57.0°F13.9°C 56% 0.4 mph SSW0.6 kmh SSW -- 30.19 in1022.4 mb 0.00 in0.0 mm 0.00 in0.0 mm 0.00 in0.0 mm
12:31 PM 73.8°F23.2°C 57.0°F13.9°C 56% 0.7 mph SSE1.1 kmh SSE 1.8 mph2.9 kmh 30.19 in1022.4 mb 0.00 in0.0 mm 0.00 in0.0 mm 0.00 in0.0 mm
12:29 PM 73.9°F23.3°C 57.7°F14.3°C 57% 0.7 mph SE1.1 kmh SE 2.0 mph3.2 kmh 30.19 in1022.4 mb 0.00 in0.0 mm 0.00 in0.0 mm 0.00 in0.0 mm
12:27 PM 73.9°F23.3°C 57.7°F14.3°C 57% 0.2 mph SSE0.3 kmh SSE -- 30.19 in1022.4 mb 0.00 in0.0 mm 0.00 in0.0 mm 0.00 in0.0 mm
12:24 PM 73.6°F23.1°C 57.4°F14.1°C 57% 0.2 mph NNW0.3 kmh NNW 0.9 mph1.4 kmh 30.19 in1022.4 mb 0.00 in0.0 mm 0.00 in0.0 mm 0.00 in0.0 mm
12:22 PM 73.2°F22.9°C 57.6°F14.2°C 58% 0.4 mph NW0.6 kmh NW -- 30.19 in1022.4 mb 0.00 in0.0 mm 0.00 in0.0 mm 0.00 in0.0 mm
12:20 PM 73.0°F22.8°C 57.4°F14.1°C 58% 0.7 mph SW1.1 kmh SW 0.9 mph1.4 kmh 30.19 in1022.4 mb 0.00 in0.0 mm 0.00 in0.0 mm 0.00 in0.0 mm
12:18 PM 72.5°F22.5°C 56.8°F13.8°C 58% 1.1 mph WNW1.8 kmh WNW 2.5 mph4.0 kmh 30.19 in1022.4 mb 0.00 in0.0 mm 0.00 in0.0 mm 0.00 in0.0 mm
12:15 PM 72.7°F22.6°C 57.0°F13.9°C 58% 1.3 mph SW2.1 kmh SW 2.9 mph4.7 kmh 30.19 in1022.4 mb 0.00 in0.0 mm 0.00 in0.0 mm 0.00 in0.0 mm
12:13 PM 72.7°F22.6°C 57.0°F13.9°C 58% 1.8 mph NW2.9 kmh NW 3.1 mph5.0 kmh 30.19 in1022.4 mb 0.00 in0.0 mm 0.00 in0.0 mm 0.00 in0.0 mm
12:11 PM 73.0°F22.8°C 56.8°F13.8°C 57% 2.0 mph SW3.2 kmh SW 5.1 mph8.2 kmh 30.19 in1022.4 mb 0.00 in0.0 mm 0.00 in0.0 mm 0.00 in0.0 mm
12:09 PM 72.7°F22.6°C 57.0°F13.9°C 58% 0.9 mph 1.4 kmh 2.0 mph3.2 kmh 30.19 in1022.4 mb 0.00 in0.0 mm 0.00 in0.0 mm 0.00 in0.0 mm
12:07 PM 72.7°F22.6°C 57.0°F13.9°C 58% 1.1 mph SSW1.8 kmh SSW 2.7 mph4.3 kmh 30.19 in1022.4 mb 0.00 in0.0 mm 0.00 in0.0 mm 0.00 in0.0 mm
12:04 PM 72.9°F22.7°C 57.2°F14.0°C 58% 1.1 mph WSW1.8 kmh WSW 3.1 mph5.0 kmh 30.19 in1022.4 mb 0.00 in0.0 mm 0.00 in0.0 mm 0.00 in0.0 mm
12:02 PM 73.0°F22.8°C 57.4°F14.1°C 58% 0.7 mph NW1.1 kmh NW 2.2 mph3.5 kmh 30.20 in1022.7 mb 0.00 in0.0 mm 0.00 in0.0 mm 0.00 in0.0 mm
12:00 PM 73.0°F22.8°C 57.4°F14.1°C 58% 0.4 mph 0.6 kmh -- 30.20 in1022.7 mb 0.00 in0.0 mm 0.00 in0.0 mm 0.00 in0.0 mm
11:57 AM 73.0°F22.8°C 57.9°F14.4°C 59% 0.9 mph WSW1.4 kmh WSW 2.5 mph4.0 kmh 30.19 in1022.4 mb 0.00 in0.0 mm 0.00 in0.0 mm 0.00 in0.0 mm
11:55 AM 72.7°F22.6°C 57.6°F14.2°C 59% 1.3 mph WNW2.1 kmh WNW 2.9 mph4.7 kmh 30.20 in1022.7 mb 0.00 in0.0 mm 0.00 in0.0 mm 0.00 in0.0 mm
11:53 AM 73.0°F22.8°C 57.9°F14.4°C 59% 0.9 mph NW1.4 kmh NW 2.0 mph3.2 kmh 30.20 in1022.7 mb 0.00 in0.0 mm 0.00 in0.0 mm 0.00 in0.0 mm
11:51 AM 72.7°F22.6°C 57.9°F14.4°C 60% 0.7 mph SE1.1 kmh SE -- 30.20 in1022.7 mb 0.00 in0.0 mm 0.00 in0.0 mm 0.00 in0.0 mm
11:49 AM 72.3°F22.4°C 57.7°F14.3°C 60% 1.1 mph WNW1.8 kmh WNW 2.5 mph4.0 kmh 30.20 in1022.7 mb 0.00 in0.0 mm 0.00 in0.0 mm 0.00 in0.0 mm
11:46 AM 72.1°F22.3°C 57.9°F14.4°C 61% 0.7 mph 1.1 kmh 3.4 mph5.5 kmh 30.20 in1022.7 mb 0.00 in0.0 mm 0.00 in0.0 mm 0.00 in0.0 mm
11:44 AM 72.1°F22.3°C 57.9°F14.4°C 61% 0.4 mph WNW0.6 kmh WNW 1.1 mph1.8 kmh 30.20 in1022.7 mb 0.00 in0.0 mm 0.00 in0.0 mm 0.00 in0.0 mm
11:42 AM 72.0°F22.2°C 57.7°F14.3°C 61% 0.4 mph 0.6 kmh 0.9 mph1.4 kmh 30.20 in1022.7 mb 0.00 in0.0 mm 0.00 in0.0 mm 0.00 in0.0 mm
11:40 AM 71.8°F22.1°C 57.6°F14.2°C 61% 0.7 mph 1.1 kmh 1.3 mph2.1 kmh 30.20 in1022.7 mb 0.00 in0.0 mm 0.00 in0.0 mm 0.00 in0.0 mm
11:37 AM 71.4°F21.9°C 57.2°F14.0°C 61% 0.9 mph SSW1.4 kmh SSW 1.3 mph2.1 kmh 30.20 in1022.7 mb 0.00 in0.0 mm 0.00 in0.0 mm 0.00 in0.0 mm
11:35 AM 71.2°F21.8°C 57.6°F14.2°C 62% 1.3 mph 2.1 kmh 3.6 mph5.8 kmh 30.21 in1023.0 mb 0.00 in0.0 mm 0.00 in0.0 mm 0.00 in0.0 mm
11:33 AM 71.2°F21.8°C 57.0°F13.9°C 61% 1.1 mph WNW1.8 kmh WNW 2.5 mph4.0 kmh 30.21 in1023.0 mb 0.00 in0.0 mm 0.00 in0.0 mm 0.00 in0.0 mm
11:31 AM 71.2°F21.8°C 57.6°F14.2°C 62% 1.1 mph NW1.8 kmh NW 3.8 mph6.1 kmh 30.21 in1023.0 mb 0.00 in0.0 mm 0.00 in0.0 mm 0.00 in0.0 mm
11:28 AM 70.9°F21.6°C 57.2°F14.0°C 62% 0.7 mph WNW1.1 kmh WNW 3.1 mph5.0 kmh 30.21 in1023.0 mb 0.00 in0.0 mm 0.00 in0.0 mm 0.00 in0.0 mm
11:26 AM 70.9°F21.6°C 57.2°F14.0°C 62% 0.9 mph NNE1.4 kmh NNE 2.5 mph4.0 kmh 30.21 in1023.0 mb 0.00 in0.0 mm 0.00 in0.0 mm 0.00 in0.0 mm
11:24 AM 70.9°F21.6°C 57.2°F14.0°C 62% 0.9 mph W1.4 kmh W 1.3 mph2.1 kmh 30.21 in1023.0 mb 0.00 in0.0 mm 0.00 in0.0 mm 0.00 in0.0 mm
11:22 AM 70.9°F21.6°C 57.2°F14.0°C 62% 1.1 mph NW1.8 kmh NW 2.0 mph3.2 kmh 30.21 in1023.0 mb 0.00 in0.0 mm 0.00 in0.0 mm 0.00 in0.0 mm
11:20 AM 70.7°F21.5°C 57.6°F14.2°C 63% 1.1 mph NNW1.8 kmh NNW 3.4 mph5.5 kmh 30.21 in1023.0 mb 0.00 in0.0 mm 0.00 in0.0 mm 0.00 in0.0 mm
11:18 AM 70.5°F21.4°C 56.8°F13.8°C 62% 1.6 mph WSW2.6 kmh WSW 3.8 mph6.1 kmh 30.21 in1023.0 mb 0.00 in0.0 mm 0.00 in0.0 mm 0.00 in0.0 mm
11:16 AM 70.5°F21.4°C 57.4°F14.1°C 63% 1.3 mph NW2.1 kmh NW 2.7 mph4.3 kmh 30.21 in1023.0 mb 0.00 in0.0 mm 0.00 in0.0 mm 0.00 in0.0 mm
11:14 AM 70.7°F21.5°C 57.6°F14.2°C 63% 0.7 mph NNW1.1 kmh NNW 2.0 mph3.2 kmh 30.21 in1023.0 mb 0.00 in0.0 mm 0.00 in0.0 mm 0.00 in0.0 mm
11:12 AM 70.7°F21.5°C 57.6°F14.2°C 63% 0.4 mph NW0.6 kmh NW -- 30.21 in1023.0 mb 0.00 in0.0 mm 0.00 in0.0 mm 0.00 in0.0 mm
11:09 AM 70.5°F21.4°C 57.4°F14.1°C 63% 1.1 mph NW1.8 kmh NW 5.6 mph9.0 kmh 30.21 in1023.0 mb 0.00 in0.0 mm 0.00 in0.0 mm 0.00 in0.0 mm
11:07 AM 70.5°F21.4°C 57.7°F14.3°C 64% 1.1 mph 1.8 kmh 2.7 mph4.3 kmh 30.21 in1023.0 mb 0.00 in0.0 mm 0.00 in0.0 mm 0.00 in0.0 mm
11:05 AM 70.3°F21.3°C 57.2°F14.0°C 63% 1.6 mph 2.6 kmh 3.6 mph5.8 kmh 30.21 in1023.0 mb 0.00 in0.0 mm 0.00 in0.0 mm 0.00 in0.0 mm
11:03 AM 70.3°F21.3°C 57.6°F14.2°C 64% 1.3 mph NW2.1 kmh NW 3.4 mph5.5 kmh 30.21 in1023.0 mb 0.00 in0.0 mm 0.00 in0.0 mm 0.00 in0.0 mm
11:01 AM 70.3°F21.3°C 57.6°F14.2°C 64% 1.3 mph NNW2.1 kmh NNW 3.1 mph5.0 kmh 30.21 in1023.0 mb 0.00 in0.0 mm 0.00 in0.0 mm 0.00 in0.0 mm
10:59 AM 70.2°F21.2°C 57.4°F14.1°C 64% 1.1 mph NW1.8 kmh NW 4.0 mph6.4 kmh 30.21 in1023.0 mb 0.00 in0.0 mm 0.00 in0.0 mm 0.00 in0.0 mm
10:56 AM 70.3°F21.3°C 57.2°F14.0°C 63% 1.6 mph NNE2.6 kmh NNE 3.4 mph5.5 kmh 30.21 in1023.0 mb 0.00 in0.0 mm 0.00 in0.0 mm 0.00 in0.0 mm
10:54 AM 70.5°F21.4°C 57.4°F14.1°C 63% 1.8 mph NW2.9 kmh NW 4.3 mph6.9 kmh 30.21 in1023.0 mb 0.00 in0.0 mm 0.00 in0.0 mm 0.00 in0.0 mm
10:52 AM 70.9°F21.6°C 57.7°F14.3°C 63% 1.3 mph 2.1 kmh 2.9 mph4.7 kmh 30.21 in1023.0 mb 0.00 in0.0 mm 0.00 in0.0 mm 0.00 in0.0 mm
10:50 AM 70.9°F21.6°C 58.5°F14.7°C 65% 0.4 mph WNW0.6 kmh WNW -- 30.21 in1023.0 mb 0.00 in0.0 mm 0.00 in0.0 mm 0.00 in0.0 mm
10:48 AM 70.7°F21.5°C 58.3°F14.6°C 65% 0.7 mph NNE1.1 kmh NNE 3.6 mph5.8 kmh 30.20 in1022.7 mb 0.00 in0.0 mm 0.00 in0.0 mm 0.00 in0.0 mm
10:46 AM 70.3°F21.3°C 58.5°F14.7°C 66% 0.7 mph NNW1.1 kmh NNW 2.9 mph4.7 kmh 30.20 in1022.7 mb 0.00 in0.0 mm 0.00 in0.0 mm 0.00 in0.0 mm
10:43 AM 70.0°F21.1°C 58.1°F14.5°C 66% 0.7 mph S1.1 kmh S 1.8 mph2.9 kmh 30.20 in1022.7 mb 0.00 in0.0 mm 0.00 in0.0 mm 0.00 in0.0 mm
10:41 AM 69.6°F20.9°C 57.7°F14.3°C 66% 0.9 mph NNW1.4 kmh NNW 1.6 mph2.6 kmh 30.21 in1023.0 mb 0.00 in0.0 mm 0.00 in0.0 mm 0.00 in0.0 mm
10:39 AM 69.6°F20.9°C 57.7°F14.3°C 66% 1.3 mph NNW2.1 kmh NNW 2.5 mph4.0 kmh 30.21 in1023.0 mb 0.00 in0.0 mm 0.00 in0.0 mm 0.00 in0.0 mm
10:37 AM 69.4°F20.8°C 57.2°F14.0°C 65% 1.3 mph WSW2.1 kmh WSW 3.1 mph5.0 kmh 30.21 in1023.0 mb 0.00 in0.0 mm 0.00 in0.0 mm 0.00 in0.0 mm
10:35 AM 69.4°F20.8°C 57.2°F14.0°C 65% 1.8 mph NNW2.9 kmh NNW 4.7 mph7.6 kmh 30.21 in1023.0 mb 0.00 in0.0 mm 0.00 in0.0 mm 0.00 in0.0 mm
10:33 AM 69.4°F20.8°C 57.2°F14.0°C 65% 1.1 mph NNW1.8 kmh NNW 2.9 mph4.7 kmh 30.21 in1023.0 mb 0.00 in0.0 mm 0.00 in0.0 mm 0.00 in0.0 mm
10:30 AM 69.6°F20.9°C 57.4°F14.1°C 65% 0.9 mph NNW1.4 kmh NNW 2.9 mph4.7 kmh 30.21 in1023.0 mb 0.00 in0.0 mm 0.00 in0.0 mm 0.00 in0.0 mm
10:28 AM 69.6°F20.9°C 57.7°F14.3°C 66% 0.4 mph 0.6 kmh 1.3 mph2.1 kmh 30.21 in1023.0 mb 0.00 in0.0 mm 0.00 in0.0 mm 0.00 in0.0 mm
10:26 AM 69.4°F20.8°C 57.2°F14.0°C 65% 0.7 mph NNW1.1 kmh NNW -- 30.21 in1023.0 mb 0.00 in0.0 mm 0.00 in0.0 mm 0.00 in0.0 mm
10:24 AM 69.6°F20.9°C 57.7°F14.3°C 66% 0.9 mph 1.4 kmh 2.9 mph4.7 kmh 30.21 in1023.0 mb 0.00 in0.0 mm 0.00 in0.0 mm 0.00 in0.0 mm
10:21 AM 69.8°F21.0°C 58.3°F14.6°C 67% 0.4 mph 0.6 kmh 1.6 mph2.6 kmh 30.21 in1023.0 mb 0.00 in0.0 mm 0.00 in0.0 mm 0.00 in0.0 mm
10:19 AM 69.6°F20.9°C 58.6°F14.8°C 68% 0.2 mph WSW0.3 kmh WSW -- 30.21 in1023.0 mb 0.00 in0.0 mm 0.00 in0.0 mm 0.00 in0.0 mm
10:17 AM 69.4°F20.8°C 58.5°F14.7°C 68% 0.4 mph SW0.6 kmh SW 1.6 mph2.6 kmh 30.21 in1023.0 mb 0.00 in0.0 mm 0.00 in0.0 mm 0.00 in0.0 mm
10:15 AM 69.1°F20.6°C 58.1°F14.5°C 68% 0.4 mph S0.6 kmh S -- 30.21 in1023.0 mb 0.00 in0.0 mm 0.00 in0.0 mm 0.00 in0.0 mm
10:13 AM 68.7°F20.4°C 58.1°F14.5°C 69% 0.7 mph NW1.1 kmh NW 1.8 mph2.9 kmh 30.21 in1023.0 mb 0.00 in0.0 mm 0.00 in0.0 mm 0.00 in0.0 mm
10:10 AM 68.5°F20.3°C 57.9°F14.4°C 69% 0.2 mph ESE0.3 kmh ESE -- 30.21 in1023.0 mb 0.00 in0.0 mm 0.00 in0.0 mm 0.00 in0.0 mm
10:08 AM 68.2°F20.1°C 57.6°F14.2°C 69% 0.4 mph S0.6 kmh S -- 30.21 in1023.0 mb 0.00 in0.0 mm 0.00 in0.0 mm 0.00 in0.0 mm
10:06 AM 67.8°F19.9°C 57.2°F14.0°C 69% 0.9 mph NNW1.4 kmh NNW 2.0 mph3.2 kmh 30.21 in1023.0 mb 0.00 in0.0 mm 0.00 in0.0 mm 0.00 in0.0 mm
10:04 AM 67.8°F19.9°C 57.2°F14.0°C 69% 1.1 mph 1.8 kmh 3.6 mph5.8 kmh 30.21 in1023.0 mb 0.00 in0.0 mm 0.00 in0.0 mm 0.00 in0.0 mm
10:02 AM 67.8°F19.9°C 57.2°F14.0°C 69% 1.3 mph NNW2.1 kmh NNW 2.7 mph4.3 kmh 30.21 in1023.0 mb 0.00 in0.0 mm 0.00 in0.0 mm 0.00 in0.0 mm
10:00 AM 67.8°F19.9°C 57.2°F14.0°C 69% 0.9 mph NNW1.4 kmh NNW 3.8 mph6.1 kmh 30.21 in1023.0 mb 0.00 in0.0 mm 0.00 in0.0 mm 0.00 in0.0 mm
09:57 AM 67.8°F19.9°C 57.2°F14.0°C 69% 0.7 mph NNW1.1 kmh NNW 1.1 mph1.8 kmh 30.21 in1023.0 mb 0.00 in0.0 mm 0.00 in0.0 mm 0.00 in0.0 mm
09:55 AM 67.8°F19.9°C 57.2°F14.0°C 69% 1.1 mph NNW1.8 kmh NNW 2.9 mph4.7 kmh 30.21 in1023.0 mb 0.00 in0.0 mm 0.00 in0.0 mm 0.00 in0.0 mm
09:53 AM 67.8°F19.9°C 56.8°F13.8°C 68% 1.1 mph WNW1.8 kmh WNW 3.1 mph5.0 kmh 30.21 in1023.0 mb 0.00 in0.0 mm 0.00 in0.0 mm 0.00 in0.0 mm
09:51 AM 67.8°F19.9°C 56.8°F13.8°C 68% 1.1 mph NNW1.8 kmh NNW 2.5 mph4.0 kmh 30.21 in1023.0 mb 0.00 in0.0 mm 0.00 in0.0 mm 0.00 in0.0 mm
09:49 AM 68.2°F20.1°C 57.2°F14.0°C 68% 0.9 mph NNW1.4 kmh NNW 3.1 mph5.0 kmh 30.21 in1023.0 mb 0.00 in0.0 mm 0.00 in0.0 mm 0.00 in0.0 mm
09:46 AM 68.2°F20.1°C 56.8°F13.8°C 67% 1.1 mph NW1.8 kmh NW 1.3 mph2.1 kmh 30.21 in1023.0 mb 0.00 in0.0 mm 0.00 in0.0 mm 0.00 in0.0 mm
09:44 AM 68.5°F20.3°C 56.7°F13.7°C 66% 1.1 mph NNW1.8 kmh NNW 2.5 mph4.0 kmh 30.21 in1023.0 mb 0.00 in0.0 mm 0.00 in0.0 mm 0.00 in0.0 mm
09:42 AM 68.7°F20.4°C 56.8°F13.8°C 66% 0.7 mph NW1.1 kmh NW 2.5 mph4.0 kmh 30.21 in1023.0 mb 0.00 in0.0 mm 0.00 in0.0 mm 0.00 in0.0 mm
09:40 AM 69.4°F20.8°C 57.2°F14.0°C 65% 0.7 mph NW1.1 kmh NW 1.3 mph2.1 kmh 30.21 in1023.0 mb 0.00 in0.0 mm 0.00 in0.0 mm 0.00 in0.0 mm
09:37 AM 70.0°F21.1°C 57.7°F14.3°C 65% 0.9 mph WSW1.4 kmh WSW 2.7 mph4.3 kmh 30.21 in1023.0 mb 0.00 in0.0 mm 0.00 in0.0 mm 0.00 in0.0 mm
09:35 AM 70.3°F21.3°C 58.8°F14.9°C 67% 0.2 mph NW0.3 kmh NW -- 30.21 in1023.0 mb 0.00 in0.0 mm 0.00 in0.0 mm 0.00 in0.0 mm
09:33 AM 70.3°F21.3°C 58.8°F14.9°C 67% 0.2 mph WSW0.3 kmh WSW -- 30.21 in1023.0 mb 0.00 in0.0 mm 0.00 in0.0 mm 0.00 in0.0 mm
09:30 AM 70.3°F21.3°C 58.8°F14.9°C 67% 0.2 mph NW0.3 kmh NW -- 30.21 in1023.0 mb 0.00 in0.0 mm 0.00 in0.0 mm 0.00 in0.0 mm
09:28 AM 70.2°F21.2°C 59.2°F15.1°C 68% 0.2 mph SSE0.3 kmh SSE -- 30.21 in1023.0 mb 0.00 in0.0 mm 0.00 in0.0 mm 0.00 in0.0 mm
09:26 AM 69.8°F21.0°C 59.2°F15.1°C 69% 0.2 mph SSE0.3 kmh SSE -- 30.21 in1023.0 mb 0.00 in0.0 mm 0.00 in0.0 mm 0.00 in0.0 mm
09:24 AM 69.4°F20.8°C 58.8°F14.9°C 69% 0.2 mph SSE0.3 kmh SSE -- 30.21 in1023.0 mb 0.00 in0.0 mm 0.00 in0.0 mm 0.00 in0.0 mm
09:22 AM 69.1°F20.6°C 58.5°F14.7°C 69% 0.2 mph S0.3 kmh S -- 30.21 in1023.0 mb 0.00 in0.0 mm 0.00 in0.0 mm 0.00 in0.0 mm
09:19 AM 68.7°F20.4°C 58.1°F14.5°C 69% 0.2 mph SSE0.3 kmh SSE -- 30.21 in1023.0 mb 0.00 in0.0 mm 0.00 in0.0 mm 0.00 in0.0 mm
09:17 AM 68.9°F20.5°C 58.3°F14.6°C 69% 0.2 mph NNE0.3 kmh NNE -- 30.21 in1023.0 mb 0.00 in0.0 mm 0.00 in0.0 mm 0.00 in0.0 mm
09:15 AM 69.3°F20.7°C 58.6°F14.8°C 69% 0.2 mph NW0.3 kmh NW -- 30.21 in1023.0 mb 0.00 in0.0 mm 0.00 in0.0 mm 0.00 in0.0 mm
09:13 AM 69.4°F20.8°C 59.2°F15.1°C 70% 0.2 mph NNE0.3 kmh NNE -- 30.21 in1023.0 mb 0.00 in0.0 mm 0.00 in0.0 mm 0.00 in0.0 mm
09:10 AM 69.4°F20.8°C 59.2°F15.1°C 70% 0.2 mph NNE0.3 kmh NNE -- 30.21 in1023.0 mb 0.00 in0.0 mm 0.00 in0.0 mm 0.00 in0.0 mm
09:08 AM 69.1°F20.6°C 58.8°F14.9°C 70% 0.2 mph 0.3 kmh -- 30.21 in1023.0 mb 0.00 in0.0 mm 0.00 in0.0 mm 0.00 in0.0 mm
09:06 AM 69.1°F20.6°C 58.8°F14.9°C 70% 0.2 mph 0.3 kmh -- 30.21 in1023.0 mb 0.00 in0.0 mm 0.00 in0.0 mm 0.00 in0.0 mm
09:04 AM 69.1°F20.6°C 59.4°F15.2°C 71% 0.2 mph NNW0.3 kmh NNW -- 30.21 in1023.0 mb 0.00 in0.0 mm 0.00 in0.0 mm 0.00 in0.0 mm
09:01 AM 68.7°F20.4°C 59.0°F15.0°C 71% 0.2 mph NE0.3 kmh NE -- 30.21 in1023.0 mb 0.00 in0.0 mm 0.00 in0.0 mm 0.00 in0.0 mm
08:59 AM 68.5°F20.3°C 59.2°F15.1°C 72% 0.2 mph NNE0.3 kmh NNE -- 30.21 in1023.0 mb 0.00 in0.0 mm 0.00 in0.0 mm 0.00 in0.0 mm
08:57 AM 68.4°F20.2°C 59.0°F15.0°C 72% 0.2 mph NNE0.3 kmh NNE -- 30.21 in1023.0 mb 0.00 in0.0 mm 0.00 in0.0 mm 0.00 in0.0 mm
08:55 AM 68.4°F20.2°C 59.0°F15.0°C 72% 0.2 mph NNE0.3 kmh NNE -- 30.21 in1023.0 mb 0.00 in0.0 mm 0.00 in0.0 mm 0.00 in0.0 mm
08:53 AM 68.4°F20.2°C 59.4°F15.2°C 73% 0.2 mph WSW0.3 kmh WSW -- 30.21 in1023.0 mb 0.00 in0.0 mm 0.00 in0.0 mm 0.00 in0.0 mm
08:50 AM 67.8°F19.9°C 58.8°F14.9°C 73% 0.2 mph SW0.3 kmh SW -- 30.21 in1023.0 mb 0.00 in0.0 mm 0.00 in0.0 mm 0.00 in0.0 mm
08:48 AM 67.8°F19.9°C 58.8°F14.9°C 73% 0.2 mph WNW0.3 kmh WNW -- 30.20 in1022.7 mb 0.00 in0.0 mm 0.00 in0.0 mm 0.00 in0.0 mm
08:46 AM 67.6°F19.8°C 58.6°F14.8°C 73% 0.2 mph NNW0.3 kmh NNW -- 30.20 in1022.7 mb 0.00 in0.0 mm 0.00 in0.0 mm 0.00 in0.0 mm
08:44 AM 67.6°F19.8°C 59.0°F15.0°C 74% 0.2 mph WNW0.3 kmh WNW -- 30.20 in1022.7 mb 0.00 in0.0 mm 0.00 in0.0 mm 0.00 in0.0 mm
08:41 AM 67.3°F19.6°C 58.6°F14.8°C 74% 0.2 mph W0.3 kmh W -- 30.20 in1022.7 mb 0.00 in0.0 mm 0.00 in0.0 mm 0.00 in0.0 mm
08:39 AM 67.1°F19.5°C 58.5°F14.7°C 74% 0.2 mph SE0.3 kmh SE -- 30.20 in1022.7 mb 0.00 in0.0 mm 0.00 in0.0 mm 0.00 in0.0 mm
08:37 AM 66.7°F19.3°C 58.6°F14.8°C 75% 0.2 mph SE0.3 kmh SE -- 30.20 in1022.7 mb 0.00 in0.0 mm 0.00 in0.0 mm 0.00 in0.0 mm
08:35 AM 66.6°F19.2°C 58.5°F14.7°C 75% 0.4 mph SE0.6 kmh SE 0.9 mph1.4 kmh 30.19 in1022.4 mb 0.00 in0.0 mm 0.00 in0.0 mm 0.00 in0.0 mm
08:33 AM 66.4°F19.1°C 58.3°F14.6°C 75% 0.4 mph ESE0.6 kmh ESE 2.0 mph3.2 kmh 30.19 in1022.4 mb 0.00 in0.0 mm 0.00 in0.0 mm 0.00 in0.0 mm
08:31 AM 66.2°F19.0°C 58.1°F14.5°C 75% 0.4 mph ESE0.6 kmh ESE -- 30.19 in1022.4 mb 0.00 in0.0 mm 0.00 in0.0 mm 0.00 in0.0 mm
08:28 AM 65.8°F18.8°C 57.7°F14.3°C 75% 0.9 mph ENE1.4 kmh ENE 2.0 mph3.2 kmh 30.19 in1022.4 mb 0.00 in0.0 mm 0.00 in0.0 mm 0.00 in0.0 mm
08:26 AM 65.5°F18.6°C 57.7°F14.3°C 76% 1.1 mph SE1.8 kmh SE 1.3 mph2.1 kmh 30.19 in1022.4 mb 0.00 in0.0 mm 0.00 in0.0 mm 0.00 in0.0 mm
08:24 AM 65.3°F18.5°C 57.6°F14.2°C 76% 1.6 mph ESE2.6 kmh ESE 2.0 mph3.2 kmh 30.19 in1022.4 mb 0.00 in0.0 mm 0.00 in0.0 mm 0.00 in0.0 mm
08:22 AM 65.1°F18.4°C 57.4°F14.1°C 76% 1.3 mph ESE2.1 kmh ESE 2.0 mph3.2 kmh 30.19 in1022.4 mb 0.00 in0.0 mm 0.00 in0.0 mm 0.00 in0.0 mm
08:19 AM 64.9°F18.3°C 57.2°F14.0°C 76% 1.1 mph SE1.8 kmh SE 1.8 mph2.9 kmh 30.19 in1022.4 mb 0.00 in0.0 mm 0.00 in0.0 mm 0.00 in0.0 mm
08:17 AM 64.8°F18.2°C 57.0°F13.9°C 76% 1.6 mph SE2.6 kmh SE 2.0 mph3.2 kmh 30.19 in1022.4 mb 0.00 in0.0 mm 0.00 in0.0 mm 0.00 in0.0 mm
08:15 AM 64.6°F18.1°C 57.2°F14.0°C 77% 1.8 mph SE2.9 kmh SE 2.0 mph3.2 kmh 30.19 in1022.4 mb 0.00 in0.0 mm 0.00 in0.0 mm 0.00 in0.0 mm
08:13 AM 64.2°F17.9°C 56.8°F13.8°C 77% 1.8 mph SE2.9 kmh SE 2.2 mph3.5 kmh 30.19 in1022.4 mb 0.00 in0.0 mm 0.00 in0.0 mm 0.00 in0.0 mm
08:10 AM 64.0°F17.8°C 56.7°F13.7°C 77% 2.2 mph SE3.5 kmh SE 2.5 mph4.0 kmh 30.19 in1022.4 mb 0.00 in0.0 mm 0.00 in0.0 mm 0.00 in0.0 mm
08:08 AM 63.9°F17.7°C 56.5°F13.6°C 77% 2.2 mph SE3.5 kmh SE 2.5 mph4.0 kmh 30.19 in1022.4 mb 0.00 in0.0 mm 0.00 in0.0 mm 0.00 in0.0 mm
08:06 AM 63.7°F17.6°C 56.7°F13.7°C 78% 2.0 mph SE3.2 kmh SE 2.9 mph4.7 kmh 30.19 in1022.4 mb 0.00 in0.0 mm 0.00 in0.0 mm 0.00 in0.0 mm
08:03 AM 63.5°F17.5°C 56.5°F13.6°C 78% 1.6 mph SE2.6 kmh SE 2.5 mph4.0 kmh 30.19 in1022.4 mb 0.00 in0.0 mm 0.00 in0.0 mm 0.00 in0.0 mm
08:01 AM 63.3°F17.4°C 56.3°F13.5°C 78% 1.3 mph SE2.1 kmh SE 2.0 mph3.2 kmh 30.19 in1022.4 mb 0.00 in0.0 mm 0.00 in0.0 mm 0.00 in0.0 mm
07:59 AM 63.1°F17.3°C 56.1°F13.4°C 78% 1.8 mph SE2.9 kmh SE 2.2 mph3.5 kmh 30.19 in1022.4 mb 0.00 in0.0 mm 0.00 in0.0 mm 0.00 in0.0 mm
07:57 AM 63.1°F17.3°C 56.1°F13.4°C 78% 1.8 mph SE2.9 kmh SE 2.2 mph3.5 kmh 30.19 in1022.4 mb 0.00 in0.0 mm 0.00 in0.0 mm 0.00 in0.0 mm
07:55 AM 63.1°F17.3°C 56.1°F13.4°C 78% 1.3 mph SE2.1 kmh SE 2.2 mph3.5 kmh 30.19 in1022.4 mb 0.00 in0.0 mm 0.00 in0.0 mm 0.00 in0.0 mm
07:53 AM 63.1°F17.3°C 56.5°F13.6°C 79% 1.1 mph SSE1.8 kmh SSE 1.6 mph2.6 kmh 30.19 in1022.4 mb 0.00 in0.0 mm 0.00 in0.0 mm 0.00 in0.0 mm
07:50 AM 63.0°F17.2°C 56.3°F13.5°C 79% 1.6 mph SSE2.6 kmh SSE 2.0 mph3.2 kmh 30.19 in1022.4 mb 0.00 in0.0 mm 0.00 in0.0 mm 0.00 in0.0 mm
07:48 AM 63.0°F17.2°C 56.3°F13.5°C 79% 2.2 mph SSE3.5 kmh SSE 4.0 mph6.4 kmh 30.19 in1022.4 mb 0.00 in0.0 mm 0.00 in0.0 mm 0.00 in0.0 mm
07:46 AM 62.6°F17.0°C 56.3°F13.5°C 80% 1.6 mph SE2.6 kmh SE 2.7 mph4.3 kmh 30.19 in1022.4 mb 0.00 in0.0 mm 0.00 in0.0 mm 0.00 in0.0 mm
07:44 AM 62.4°F16.9°C 56.1°F13.4°C 80% 1.6 mph SE2.6 kmh SE 2.5 mph4.0 kmh 30.19 in1022.4 mb 0.00 in0.0 mm 0.00 in0.0 mm 0.00 in0.0 mm
07:41 AM 62.2°F16.8°C 55.9°F13.3°C 80% 1.3 mph SE2.1 kmh SE 1.8 mph2.9 kmh 30.19 in1022.4 mb 0.00 in0.0 mm 0.00 in0.0 mm 0.00 in0.0 mm
07:39 AM 61.9°F16.6°C 55.9°F13.3°C 81% 2.0 mph SE3.2 kmh SE 2.0 mph3.2 kmh 30.18 in1022.0 mb 0.00 in0.0 mm 0.00 in0.0 mm 0.00 in0.0 mm
07:37 AM 61.5°F16.4°C 55.6°F13.1°C 81% 2.5 mph SE4.0 kmh SE 2.9 mph4.7 kmh 30.18 in1022.0 mb 0.00 in0.0 mm 0.00 in0.0 mm 0.00 in0.0 mm
07:35 AM 61.5°F16.4°C 55.6°F13.1°C 81% 2.7 mph SE4.3 kmh SE 3.6 mph5.8 kmh 30.18 in1022.0 mb 0.00 in0.0 mm 0.00 in0.0 mm 0.00 in0.0 mm
07:33 AM 61.3°F16.3°C 55.4°F13.0°C 81% 2.7 mph SE4.3 kmh SE 3.6 mph5.8 kmh 30.18 in1022.0 mb 0.00 in0.0 mm 0.00 in0.0 mm 0.00 in0.0 mm
07:30 AM 61.0°F16.1°C 55.0°F12.8°C 81% 2.5 mph SE4.0 kmh SE 2.9 mph4.7 kmh 30.18 in1022.0 mb 0.00 in0.0 mm 0.00 in0.0 mm 0.00 in0.0 mm
07:28 AM 61.0°F16.1°C 55.0°F12.8°C 81% 2.9 mph SE4.7 kmh SE 4.3 mph6.9 kmh 30.18 in1022.0 mb 0.00 in0.0 mm 0.00 in0.0 mm 0.00 in0.0 mm
07:26 AM 60.6°F15.9°C 54.7°F12.6°C 81% 2.5 mph SE4.0 kmh SE 3.1 mph5.0 kmh 30.18 in1022.0 mb 0.00 in0.0 mm 0.00 in0.0 mm 0.00 in0.0 mm
07:24 AM 60.6°F15.9°C 54.7°F12.6°C 81% 2.2 mph SE3.5 kmh SE 2.7 mph4.3 kmh 30.18 in1022.0 mb 0.00 in0.0 mm 0.00 in0.0 mm 0.00 in0.0 mm
07:22 AM 60.4°F15.8°C 54.5°F12.5°C 81% 2.2 mph SE3.5 kmh SE 2.5 mph4.0 kmh 30.18 in1022.0 mb 0.00 in0.0 mm 0.00 in0.0 mm 0.00 in0.0 mm
07:19 AM 60.4°F15.8°C 54.5°F12.5°C 81% 2.2 mph SE3.5 kmh SE 3.8 mph6.1 kmh 30.18 in1022.0 mb 0.00 in0.0 mm 0.00 in0.0 mm 0.00 in0.0 mm
07:17 AM 60.1°F15.6°C 54.3°F12.4°C 81% 2.2 mph ESE3.5 kmh ESE 2.5 mph4.0 kmh 30.18 in1022.0 mb 0.00 in0.0 mm 0.00 in0.0 mm 0.00 in0.0 mm
07:15 AM 60.1°F15.6°C 54.3°F12.4°C 81% 2.5 mph SSE4.0 kmh SSE 3.1 mph5.0 kmh 30.18 in1022.0 mb 0.00 in0.0 mm 0.00 in0.0 mm 0.00 in0.0 mm
07:13 AM 60.1°F15.6°C 54.3°F12.4°C 81% 2.5 mph SE4.0 kmh SE 2.9 mph4.7 kmh 30.18 in1022.0 mb 0.00 in0.0 mm 0.00 in0.0 mm 0.00 in0.0 mm
07:11 AM 59.9°F15.5°C 54.1°F12.3°C 81% 2.5 mph SE4.0 kmh SE 3.8 mph6.1 kmh 30.18 in1022.0 mb 0.00 in0.0 mm 0.00 in0.0 mm 0.00 in0.0 mm
07:08 AM 60.1°F15.6°C 54.0°F12.2°C 80% 2.7 mph ESE4.3 kmh ESE 4.0 mph6.4 kmh 30.17 in1021.7 mb 0.00 in0.0 mm 0.00 in0.0 mm 0.00 in0.0 mm
07:06 AM 60.3°F15.7°C 54.1°F12.3°C 80% 2.7 mph SE4.3 kmh SE 3.8 mph6.1 kmh 30.18 in1022.0 mb 0.00 in0.0 mm 0.00 in0.0 mm 0.00 in0.0 mm
07:04 AM 60.6°F15.9°C 54.5°F12.5°C 80% 2.2 mph ESE3.5 kmh ESE 3.4 mph5.5 kmh 30.17 in1021.7 mb 0.00 in0.0 mm 0.00 in0.0 mm 0.00 in0.0 mm
07:02 AM 60.6°F15.9°C 54.7°F12.6°C 81% 2.0 mph SSE3.2 kmh SSE 2.7 mph4.3 kmh 30.17 in1021.7 mb 0.00 in0.0 mm 0.00 in0.0 mm 0.00 in0.0 mm
06:59 AM 60.6°F15.9°C 54.7°F12.6°C 81% 2.0 mph SSE3.2 kmh SSE 2.9 mph4.7 kmh 30.17 in1021.7 mb 0.00 in0.0 mm 0.00 in0.0 mm 0.00 in0.0 mm
06:57 AM 60.6°F15.9°C 54.7°F12.6°C 81% 1.8 mph SSE2.9 kmh SSE 2.0 mph3.2 kmh 30.17 in1021.7 mb 0.00 in0.0 mm 0.00 in0.0 mm 0.00 in0.0 mm
06:55 AM 60.4°F15.8°C 54.5°F12.5°C 81% 1.6 mph SSE2.6 kmh SSE 2.0 mph3.2 kmh 30.17 in1021.7 mb 0.00 in0.0 mm 0.00 in0.0 mm 0.00 in0.0 mm
06:53 AM 60.4°F15.8°C 54.3°F12.4°C 80% 1.8 mph SE2.9 kmh SE 2.9 mph4.7 kmh 30.17 in1021.7 mb 0.00 in0.0 mm 0.00 in0.0 mm 0.00 in0.0 mm
06:50 AM 60.4°F15.8°C 54.3°F12.4°C 80% 2.0 mph SSE3.2 kmh SSE 2.9 mph4.7 kmh 30.18 in1022.0 mb 0.00 in0.0 mm 0.00 in0.0 mm 0.00 in0.0 mm
06:48 AM 60.4°F15.8°C 54.3°F12.4°C 80% 2.0 mph SE3.2 kmh SE 2.5 mph4.0 kmh 30.17 in1021.7 mb 0.00 in0.0 mm 0.00 in0.0 mm 0.00 in0.0 mm
06:46 AM 60.4°F15.8°C 54.3°F12.4°C 80% 1.8 mph SSE2.9 kmh SSE 2.2 mph3.5 kmh 30.17 in1021.7 mb 0.00 in0.0 mm 0.00 in0.0 mm 0.00 in0.0 mm
06:44 AM 60.4°F15.8°C 54.3°F12.4°C 80% 1.8 mph SE2.9 kmh SE 2.5 mph4.0 kmh 30.17 in1021.7 mb 0.00 in0.0 mm 0.00 in0.0 mm 0.00 in0.0 mm
06:42 AM 60.6°F15.9°C 54.5°F12.5°C 80% 1.8 mph SSE2.9 kmh SSE 2.2 mph3.5 kmh 30.17 in1021.7 mb 0.00 in0.0 mm 0.00 in0.0 mm 0.00 in0.0 mm
06:39 AM 60.4°F15.8°C 54.3°F12.4°C 80% 1.8 mph SSE2.9 kmh SSE 2.7 mph4.3 kmh 30.17 in1021.7 mb 0.00 in0.0 mm 0.00 in0.0 mm 0.00 in0.0 mm
06:37 AM 60.4°F15.8°C 54.3°F12.4°C 80% 1.6 mph SE2.6 kmh SE 2.0 mph3.2 kmh 30.17 in1021.7 mb 0.00 in0.0 mm 0.00 in0.0 mm 0.00 in0.0 mm
06:35 AM 60.4°F15.8°C 54.3°F12.4°C 80% 1.8 mph SSE2.9 kmh SSE 2.0 mph3.2 kmh 30.17 in1021.7 mb 0.00 in0.0 mm 0.00 in0.0 mm 0.00 in0.0 mm
06:33 AM 60.6°F15.9°C 54.7°F12.6°C 81% 1.8 mph SSE2.9 kmh SSE 2.5 mph4.0 kmh 30.17 in1021.7 mb 0.00 in0.0 mm 0.00 in0.0 mm 0.00 in0.0 mm
06:31 AM 60.6°F15.9°C 54.7°F12.6°C 81% 1.6 mph SSE2.6 kmh SSE 2.5 mph4.0 kmh 30.17 in1021.7 mb 0.00 in0.0 mm 0.00 in0.0 mm 0.00 in0.0 mm
06:28 AM 60.6°F15.9°C 54.7°F12.6°C 81% 1.1 mph SE1.8 kmh SE 2.0 mph3.2 kmh 30.17 in1021.7 mb 0.00 in0.0 mm 0.00 in0.0 mm 0.00 in0.0 mm
06:26 AM 60.8°F16.0°C 54.9°F12.7°C 81% 0.9 mph SSE1.4 kmh SSE 2.0 mph3.2 kmh 30.17 in1021.7 mb 0.00 in0.0 mm 0.00 in0.0 mm 0.00 in0.0 mm
06:24 AM 60.6°F15.9°C 54.7°F12.6°C 81% 0.7 mph SSE1.1 kmh SSE 1.6 mph2.6 kmh 30.17 in1021.7 mb 0.00 in0.0 mm 0.00 in0.0 mm 0.00 in0.0 mm
06:22 AM 60.6°F15.9°C 54.7°F12.6°C 81% 1.1 mph SSE1.8 kmh SSE 1.3 mph2.1 kmh 30.17 in1021.7 mb 0.00 in0.0 mm 0.00 in0.0 mm 0.00 in0.0 mm
06:20 AM 60.4°F15.8°C 54.5°F12.5°C 81% 1.3 mph SSE2.1 kmh SSE 1.3 mph2.1 kmh 30.17 in1021.7 mb 0.00 in0.0 mm 0.00 in0.0 mm 0.00 in0.0 mm
06:17 AM 60.4°F15.8°C 54.5°F12.5°C 81% 2.0 mph SSE3.2 kmh SSE 2.0 mph3.2 kmh 30.17 in1021.7 mb 0.00 in0.0 mm 0.00 in0.0 mm 0.00 in0.0 mm
06:15 AM 60.4°F15.8°C 54.3°F12.4°C 80% 2.0 mph SSE3.2 kmh SSE 2.5 mph4.0 kmh 30.17 in1021.7 mb 0.00 in0.0 mm 0.00 in0.0 mm 0.00 in0.0 mm
06:13 AM 60.1°F15.6°C 54.0°F12.2°C 80% 2.2 mph ESE3.5 kmh ESE 3.1 mph5.0 kmh 30.17 in1021.7 mb 0.00 in0.0 mm 0.00 in0.0 mm 0.00 in0.0 mm
06:11 AM 60.1°F15.6°C 54.0°F12.2°C 80% 2.5 mph SE4.0 kmh SE 2.9 mph4.7 kmh 30.17 in1021.7 mb 0.00 in0.0 mm 0.00 in0.0 mm 0.00 in0.0 mm
06:09 AM 60.1°F15.6°C 54.0°F12.2°C 80% 2.7 mph ESE4.3 kmh ESE 2.9 mph4.7 kmh 30.17 in1021.7 mb 0.00 in0.0 mm 0.00 in0.0 mm 0.00 in0.0 mm
06:06 AM 60.4°F15.8°C 54.3°F12.4°C 80% 2.7 mph SSE4.3 kmh SSE 3.1 mph5.0 kmh 30.16 in1021.3 mb 0.00 in0.0 mm 0.00 in0.0 mm 0.00 in0.0 mm
06:04 AM 60.4°F15.8°C 54.3°F12.4°C 80% 2.9 mph SE4.7 kmh SE 3.8 mph6.1 kmh 30.17 in1021.7 mb 0.00 in0.0 mm 0.00 in0.0 mm 0.00 in0.0 mm
06:02 AM 60.4°F15.8°C 54.3°F12.4°C 80% 2.2 mph SE3.5 kmh SE 2.7 mph4.3 kmh 30.16 in1021.3 mb 0.00 in0.0 mm 0.00 in0.0 mm 0.00 in0.0 mm
05:59 AM 60.4°F15.8°C 54.3°F12.4°C 80% 2.5 mph SSE4.0 kmh SSE 3.1 mph5.0 kmh 30.16 in1021.3 mb 0.00 in0.0 mm 0.00 in0.0 mm 0.00 in0.0 mm
05:57 AM 60.4°F15.8°C 54.3°F12.4°C 80% 2.2 mph SSE3.5 kmh SSE 2.9 mph4.7 kmh 30.16 in1021.3 mb 0.00 in0.0 mm 0.00 in0.0 mm 0.00 in0.0 mm
05:55 AM 60.4°F15.8°C 54.3°F12.4°C 80% 2.2 mph SSE3.5 kmh SSE 3.1 mph5.0 kmh 30.17 in1021.7 mb 0.00 in0.0 mm 0.00 in0.0 mm 0.00 in0.0 mm
05:53 AM 60.4°F15.8°C 54.3°F12.4°C 80% 1.8 mph S2.9 kmh S 2.2 mph3.5 kmh 30.17 in1021.7 mb 0.00 in0.0 mm 0.00 in0.0 mm 0.00 in0.0 mm
05:51 AM 60.4°F15.8°C 54.3°F12.4°C 80% 2.2 mph SSE3.5 kmh SSE 2.2 mph3.5 kmh 30.16 in1021.3 mb 0.00 in0.0 mm 0.00 in0.0 mm 0.00 in0.0 mm
05:49 AM 60.4°F15.8°C 54.3°F12.4°C 80% 2.9 mph SE4.7 kmh SE 2.9 mph4.7 kmh 30.16 in1021.3 mb 0.00 in0.0 mm 0.00 in0.0 mm 0.00 in0.0 mm
05:46 AM 60.6°F15.9°C 54.1°F12.3°C 79% 2.9 mph SE4.7 kmh SE 3.8 mph6.1 kmh 30.16 in1021.3 mb 0.00 in0.0 mm 0.00 in0.0 mm 0.00 in0.0 mm
05:44 AM 60.6°F15.9°C 54.1°F12.3°C 79% 2.7 mph ESE4.3 kmh ESE 4.9 mph7.9 kmh 30.16 in1021.3 mb 0.00 in0.0 mm 0.00 in0.0 mm 0.00 in0.0 mm
05:42 AM 61.0°F16.1°C 54.7°F12.6°C 80% 2.0 mph S3.2 kmh S 4.7 mph7.6 kmh 30.16 in1021.3 mb 0.00 in0.0 mm 0.00 in0.0 mm 0.00 in0.0 mm
05:39 AM 61.0°F16.1°C 54.7°F12.6°C 80% 0.9 mph SSE1.4 kmh SSE 1.6 mph2.6 kmh 30.16 in1021.3 mb 0.00 in0.0 mm 0.00 in0.0 mm 0.00 in0.0 mm
05:37 AM 60.8°F16.0°C 54.3°F12.4°C 79% 1.1 mph SSE1.8 kmh SSE 2.2 mph3.5 kmh 30.16 in1021.3 mb 0.00 in0.0 mm 0.00 in0.0 mm 0.00 in0.0 mm
05:35 AM 61.0°F16.1°C 54.5°F12.5°C 79% 1.1 mph SE1.8 kmh SE 1.8 mph2.9 kmh 30.16 in1021.3 mb 0.00 in0.0 mm 0.00 in0.0 mm 0.00 in0.0 mm
05:33 AM 61.0°F16.1°C 54.5°F12.5°C 79% 1.3 mph SE2.1 kmh SE 2.5 mph4.0 kmh 30.16 in1021.3 mb 0.00 in0.0 mm 0.00 in0.0 mm 0.00 in0.0 mm
05:30 AM 61.0°F16.1°C 54.5°F12.5°C 79% 1.1 mph SE1.8 kmh SE 1.6 mph2.6 kmh 30.16 in1021.3 mb 0.00 in0.0 mm 0.00 in0.0 mm 0.00 in0.0 mm
05:28 AM 61.0°F16.1°C 54.5°F12.5°C 79% 1.3 mph SSE2.1 kmh SSE 1.3 mph2.1 kmh 30.16 in1021.3 mb 0.00 in0.0 mm 0.00 in0.0 mm 0.00 in0.0 mm
05:26 AM 61.2°F16.2°C 54.7°F12.6°C 79% 1.6 mph SE2.6 kmh SE 2.0 mph3.2 kmh 30.16 in1021.3 mb 0.00 in0.0 mm 0.00 in0.0 mm 0.00 in0.0 mm
05:24 AM 61.2°F16.2°C 54.7°F12.6°C 79% 1.6 mph SE2.6 kmh SE 4.0 mph6.4 kmh 30.16 in1021.3 mb 0.00 in0.0 mm 0.00 in0.0 mm 0.00 in0.0 mm
05:22 AM 61.3°F16.3°C 54.9°F12.7°C 79% 2.0 mph S3.2 kmh S 4.0 mph6.4 kmh 30.16 in1021.3 mb 0.00 in0.0 mm 0.00 in0.0 mm 0.00 in0.0 mm
05:20 AM 61.3°F16.3°C 54.9°F12.7°C 79% 1.8 mph S2.9 kmh S 3.1 mph5.0 kmh 30.16 in1021.3 mb 0.00 in0.0 mm 0.00 in0.0 mm 0.00 in0.0 mm
05:17 AM 61.3°F16.3°C 54.9°F12.7°C 79% 1.6 mph SSE2.6 kmh SSE 2.5 mph4.0 kmh 30.16 in1021.3 mb 0.00 in0.0 mm 0.00 in0.0 mm 0.00 in0.0 mm
05:15 AM 61.3°F16.3°C 55.0°F12.8°C 80% 1.8 mph SSE2.9 kmh SSE 2.2 mph3.5 kmh 30.16 in1021.3 mb 0.00 in0.0 mm 0.00 in0.0 mm 0.00 in0.0 mm
05:13 AM 61.2°F16.2°C 54.9°F12.7°C 80% 1.8 mph SE2.9 kmh SE 2.0 mph3.2 kmh 30.16 in1021.3 mb 0.00 in0.0 mm 0.00 in0.0 mm 0.00 in0.0 mm
05:11 AM 61.0°F16.1°C 54.7°F12.6°C 80% 2.0 mph SSE3.2 kmh SSE 2.0 mph3.2 kmh 30.16 in1021.3 mb 0.00 in0.0 mm 0.00 in0.0 mm 0.00 in0.0 mm
05:09 AM 61.0°F16.1°C 54.7°F12.6°C 80% 2.0 mph SE3.2 kmh SE 2.0 mph3.2 kmh 30.16 in1021.3 mb 0.00 in0.0 mm 0.00 in0.0 mm 0.00 in0.0 mm
05:07 AM 60.8°F16.0°C 54.3°F12.4°C 79% 2.2 mph SE3.5 kmh SE 2.7 mph4.3 kmh 30.16 in1021.3 mb 0.00 in0.0 mm 0.00 in0.0 mm 0.00 in0.0 mm
05:04 AM 60.8°F16.0°C 54.3°F12.4°C 79% 2.5 mph S4.0 kmh S 3.1 mph5.0 kmh 30.16 in1021.3 mb 0.00 in0.0 mm 0.00 in0.0 mm 0.00 in0.0 mm
05:02 AM 61.0°F16.1°C 54.5°F12.5°C 79% 2.9 mph SE4.7 kmh SE 4.5 mph7.2 kmh 30.16 in1021.3 mb 0.00 in0.0 mm 0.00 in0.0 mm 0.00 in0.0 mm
05:00 AM 61.2°F16.2°C 54.7°F12.6°C 79% 2.5 mph ESE4.0 kmh ESE 3.1 mph5.0 kmh 30.16 in1021.3 mb 0.00 in0.0 mm 0.00 in0.0 mm 0.00 in0.0 mm
04:58 AM 61.3°F16.3°C 54.9°F12.7°C 79% 2.2 mph SE3.5 kmh SE 2.9 mph4.7 kmh 30.16 in1021.3 mb 0.00 in0.0 mm 0.00 in0.0 mm 0.00 in0.0 mm
04:56 AM 61.3°F16.3°C 54.9°F12.7°C 79% 2.0 mph SSE3.2 kmh SSE 3.6 mph5.8 kmh 30.16 in1021.3 mb 0.00 in0.0 mm 0.00 in0.0 mm 0.00 in0.0 mm
04:53 AM 61.3°F16.3°C 54.9°F12.7°C 79% 2.0 mph SSE3.2 kmh SSE 2.2 mph3.5 kmh 30.16 in1021.3 mb 0.00 in0.0 mm 0.00 in0.0 mm 0.00 in0.0 mm
04:51 AM 61.3°F16.3°C 54.9°F12.7°C 79% 2.0 mph SSE3.2 kmh SSE 2.2 mph3.5 kmh 30.16 in1021.3 mb 0.00 in0.0 mm 0.00 in0.0 mm 0.00 in0.0 mm
04:49 AM 61.3°F16.3°C 54.9°F12.7°C 79% 2.5 mph SE4.0 kmh SE 2.9 mph4.7 kmh 30.16 in1021.3 mb 0.00 in0.0 mm 0.00 in0.0 mm 0.00 in0.0 mm
04:47 AM 61.3°F16.3°C 54.9°F12.7°C 79% 2.7 mph SE4.3 kmh SE 4.3 mph6.9 kmh 30.16 in1021.3 mb 0.00 in0.0 mm 0.00 in0.0 mm 0.00 in0.0 mm
04:45 AM 61.5°F16.4°C 54.7°F12.6°C 78% 2.5 mph SSE4.0 kmh SSE 3.4 mph5.5 kmh 30.16 in1021.3 mb 0.00 in0.0 mm 0.00 in0.0 mm 0.00 in0.0 mm
04:42 AM 61.5°F16.4°C 54.7°F12.6°C 78% 2.0 mph SE3.2 kmh SE 4.7 mph7.6 kmh 30.16 in1021.3 mb 0.00 in0.0 mm 0.00 in0.0 mm 0.00 in0.0 mm
04:40 AM 61.7°F16.5°C 55.0°F12.8°C 79% 0.9 mph SSE1.4 kmh SSE 2.2 mph3.5 kmh 30.16 in1021.3 mb 0.00 in0.0 mm 0.00 in0.0 mm 0.00 in0.0 mm
04:38 AM 61.9°F16.6°C 55.2°F12.9°C 79% 1.1 mph S1.8 kmh S 1.3 mph2.1 kmh 30.16 in1021.3 mb 0.00 in0.0 mm 0.00 in0.0 mm 0.00 in0.0 mm
04:36 AM 61.7°F16.5°C 55.0°F12.8°C 79% 1.3 mph SE2.1 kmh SE 1.6 mph2.6 kmh 30.16 in1021.3 mb 0.00 in0.0 mm 0.00 in0.0 mm 0.00 in0.0 mm
04:34 AM 61.7°F16.5°C 55.0°F12.8°C 79% 1.3 mph SSE2.1 kmh SSE 2.0 mph3.2 kmh 30.15 in1021.0 mb 0.00 in0.0 mm 0.00 in0.0 mm 0.00 in0.0 mm
04:32 AM 61.5°F16.4°C 54.9°F12.7°C 79% 1.3 mph SE2.1 kmh SE 2.2 mph3.5 kmh 30.16 in1021.3 mb 0.00 in0.0 mm 0.00 in0.0 mm 0.00 in0.0 mm
04:30 AM 61.5°F16.4°C 54.9°F12.7°C 79% 1.3 mph ESE2.1 kmh ESE 2.2 mph3.5 kmh 30.15 in1021.0 mb 0.00 in0.0 mm 0.00 in0.0 mm 0.00 in0.0 mm
04:27 AM 61.5°F16.4°C 54.9°F12.7°C 79% 1.8 mph SE2.9 kmh SE 2.7 mph4.3 kmh 30.16 in1021.3 mb 0.00 in0.0 mm 0.00 in0.0 mm 0.00 in0.0 mm
04:25 AM 61.2°F16.2°C 54.7°F12.6°C 79% 1.8 mph SSE2.9 kmh SSE 3.4 mph5.5 kmh 30.16 in1021.3 mb 0.00 in0.0 mm 0.00 in0.0 mm 0.00 in0.0 mm
04:23 AM 61.0°F16.1°C 54.5°F12.5°C 79% 2.0 mph SSE3.2 kmh SSE 2.2 mph3.5 kmh 30.16 in1021.3 mb 0.00 in0.0 mm 0.00 in0.0 mm 0.00 in0.0 mm
04:21 AM 61.2°F16.2°C 54.7°F12.6°C 79% 2.5 mph SE4.0 kmh SE 3.6 mph5.8 kmh 30.15 in1021.0 mb 0.00 in0.0 mm 0.00 in0.0 mm 0.00 in0.0 mm
04:18 AM 61.3°F16.3°C 54.5°F12.5°C 78% 2.7 mph SSE4.3 kmh SSE 3.1 mph5.0 kmh 30.16 in1021.3 mb 0.00 in0.0 mm 0.00 in0.0 mm 0.00 in0.0 mm
04:16 AM 61.5°F16.4°C 54.7°F12.6°C 78% 2.7 mph SE4.3 kmh SE 4.7 mph7.6 kmh 30.16 in1021.3 mb 0.00 in0.0 mm 0.00 in0.0 mm 0.00 in0.0 mm
04:14 AM 61.5°F16.4°C 54.7°F12.6°C 78% 2.2 mph SSE3.5 kmh SSE 2.7 mph4.3 kmh 30.15 in1021.0 mb 0.00 in0.0 mm 0.00 in0.0 mm 0.00 in0.0 mm
04:12 AM 61.7°F16.5°C 54.9°F12.7°C 78% 2.2 mph SE3.5 kmh SE 3.1 mph5.0 kmh 30.15 in1021.0 mb 0.00 in0.0 mm 0.00 in0.0 mm 0.00 in0.0 mm
04:10 AM 61.7°F16.5°C 54.9°F12.7°C 78% 2.2 mph SE3.5 kmh SE 2.2 mph3.5 kmh 30.15 in1021.0 mb 0.00 in0.0 mm 0.00 in0.0 mm 0.00 in0.0 mm
04:07 AM 61.7°F16.5°C 54.5°F12.5°C 77% 2.5 mph SE4.0 kmh SE 2.0 mph3.2 kmh 30.15 in1021.0 mb 0.00 in0.0 mm 0.00 in0.0 mm 0.00 in0.0 mm
04:05 AM 61.9°F16.6°C 54.7°F12.6°C 77% 2.9 mph SE4.7 kmh SE 4.0 mph6.4 kmh 30.16 in1021.3 mb 0.00 in0.0 mm 0.00 in0.0 mm 0.00 in0.0 mm
04:03 AM 62.2°F16.8°C 54.9°F12.7°C 77% 2.5 mph SSE4.0 kmh SSE 3.8 mph6.1 kmh 30.15 in1021.0 mb 0.00 in0.0 mm 0.00 in0.0 mm 0.00 in0.0 mm
04:01 AM 62.4°F16.9°C 55.0°F12.8°C 77% 2.2 mph SE3.5 kmh SE 3.6 mph5.8 kmh 30.15 in1021.0 mb 0.00 in0.0 mm 0.00 in0.0 mm 0.00 in0.0 mm
03:58 AM 62.6°F17.0°C 55.2°F12.9°C 77% 2.0 mph SSE3.2 kmh SSE 3.8 mph6.1 kmh 30.16 in1021.3 mb 0.00 in0.0 mm 0.00 in0.0 mm 0.00 in0.0 mm
03:56 AM 62.6°F17.0°C 55.2°F12.9°C 77% 1.1 mph SSE1.8 kmh SSE 2.2 mph3.5 kmh 30.15 in1021.0 mb 0.00 in0.0 mm 0.00 in0.0 mm 0.00 in0.0 mm
03:54 AM 62.8°F17.1°C 55.4°F13.0°C 77% 1.1 mph SE1.8 kmh SE 2.0 mph3.2 kmh 30.15 in1021.0 mb 0.00 in0.0 mm 0.00 in0.0 mm 0.00 in0.0 mm
03:52 AM 63.0°F17.2°C 55.6°F13.1°C 77% 1.3 mph SSE2.1 kmh SSE 3.6 mph5.8 kmh 30.16 in1021.3 mb 0.00 in0.0 mm 0.00 in0.0 mm 0.00 in0.0 mm
03:50 AM 63.0°F17.2°C 55.9°F13.3°C 78% 1.3 mph SE2.1 kmh SE 2.2 mph3.5 kmh 30.16 in1021.3 mb 0.00 in0.0 mm 0.00 in0.0 mm 0.00 in0.0 mm
03:48 AM 62.8°F17.1°C 55.4°F13.0°C 77% 1.3 mph SE2.1 kmh SE 1.6 mph2.6 kmh 30.16 in1021.3 mb 0.00 in0.0 mm 0.00 in0.0 mm 0.00 in0.0 mm
03:45 AM 62.8°F17.1°C 55.4°F13.0°C 77% 1.8 mph SSE2.9 kmh SSE 2.2 mph3.5 kmh 30.16 in1021.3 mb 0.00 in0.0 mm 0.00 in0.0 mm 0.00 in0.0 mm
03:43 AM 62.6°F17.0°C 55.2°F12.9°C 77% 2.7 mph ESE4.3 kmh ESE 3.6 mph5.8 kmh 30.16 in1021.3 mb 0.00 in0.0 mm 0.00 in0.0 mm 0.00 in0.0 mm
03:41 AM 62.6°F17.0°C 55.2°F12.9°C 77% 2.2 mph E3.5 kmh E 2.5 mph4.0 kmh 30.16 in1021.3 mb 0.00 in0.0 mm 0.00 in0.0 mm 0.00 in0.0 mm
03:39 AM 62.8°F17.1°C 55.4°F13.0°C 77% 2.0 mph ESE3.2 kmh ESE 3.6 mph5.8 kmh 30.15 in1021.0 mb 0.00 in0.0 mm 0.00 in0.0 mm 0.00 in0.0 mm
03:37 AM 62.6°F17.0°C 55.6°F13.1°C 78% 1.6 mph ESE2.6 kmh ESE 1.6 mph2.6 kmh 30.16 in1021.3 mb 0.00 in0.0 mm 0.00 in0.0 mm 0.00 in0.0 mm
03:35 AM 62.4°F16.9°C 55.4°F13.0°C 78% 2.0 mph SSE3.2 kmh SSE 3.8 mph6.1 kmh 30.16 in1021.3 mb 0.00 in0.0 mm 0.00 in0.0 mm 0.00 in0.0 mm
03:32 AM 62.4°F16.9°C 55.4°F13.0°C 78% 2.0 mph ESE3.2 kmh ESE 3.6 mph5.8 kmh 30.16 in1021.3 mb 0.00 in0.0 mm 0.00 in0.0 mm 0.00 in0.0 mm
03:30 AM 62.4°F16.9°C 55.4°F13.0°C 78% 2.0 mph SE3.2 kmh SE 5.1 mph8.2 kmh 30.15 in1021.0 mb 0.00 in0.0 mm 0.00 in0.0 mm 0.00 in0.0 mm
03:28 AM 62.4°F16.9°C 55.4°F13.0°C 78% 1.1 mph SSE1.8 kmh SSE 2.9 mph4.7 kmh 30.16 in1021.3 mb 0.00 in0.0 mm 0.00 in0.0 mm 0.00 in0.0 mm
03:26 AM 62.4°F16.9°C 55.4°F13.0°C 78% 0.7 mph ESE1.1 kmh ESE 2.0 mph3.2 kmh 30.16 in1021.3 mb 0.00 in0.0 mm 0.00 in0.0 mm 0.00 in0.0 mm
03:24 AM 62.4°F16.9°C 55.8°F13.2°C 79% 0.9 mph SSE1.4 kmh SSE 1.3 mph2.1 kmh 30.16 in1021.3 mb 0.00 in0.0 mm 0.00 in0.0 mm 0.00 in0.0 mm
03:21 AM 62.2°F16.8°C 55.6°F13.1°C 79% 1.6 mph SE2.6 kmh SE 2.5 mph4.0 kmh 30.16 in1021.3 mb 0.00 in0.0 mm 0.00 in0.0 mm 0.00 in0.0 mm
03:19 AM 61.9°F16.6°C 55.2°F12.9°C 79% 1.6 mph SE2.6 kmh SE 2.0 mph3.2 kmh 30.16 in1021.3 mb 0.00 in0.0 mm 0.00 in0.0 mm 0.00 in0.0 mm
03:17 AM 61.7°F16.5°C 55.0°F12.8°C 79% 2.0 mph SE3.2 kmh SE 2.0 mph3.2 kmh 30.16 in1021.3 mb 0.00 in0.0 mm 0.00 in0.0 mm 0.00 in0.0 mm
03:14 AM 61.7°F16.5°C 55.0°F12.8°C 79% 2.7 mph SE4.3 kmh SE 3.4 mph5.5 kmh 30.16 in1021.3 mb 0.00 in0.0 mm 0.00 in0.0 mm 0.00 in0.0 mm
03:12 AM 61.9°F16.6°C 55.2°F12.9°C 79% 2.9 mph SE4.7 kmh SE 4.0 mph6.4 kmh 30.16 in1021.3 mb 0.00 in0.0 mm 0.00 in0.0 mm 0.00 in0.0 mm
03:10 AM 61.9°F16.6°C 55.2°F12.9°C 79% 2.7 mph SE4.3 kmh SE 3.8 mph6.1 kmh 30.16 in1021.3 mb 0.00 in0.0 mm 0.00 in0.0 mm 0.00 in0.0 mm
03:08 AM 62.2°F16.8°C 55.6°F13.1°C 79% 2.5 mph SE4.0 kmh SE 3.8 mph6.1 kmh 30.16 in1021.3 mb 0.00 in0.0 mm 0.00 in0.0 mm 0.00 in0.0 mm
03:06 AM 61.9°F16.6°C 55.2°F12.9°C 79% 2.2 mph SE3.5 kmh SE 4.0 mph6.4 kmh 30.16 in1021.3 mb 0.00 in0.0 mm 0.00 in0.0 mm 0.00 in0.0 mm
03:03 AM 61.9°F16.6°C 55.2°F12.9°C 79% 2.2 mph SE3.5 kmh SE 2.9 mph4.7 kmh 30.16 in1021.3 mb 0.00 in0.0 mm 0.00 in0.0 mm 0.00 in0.0 mm
03:01 AM 61.7°F16.5°C 55.0°F12.8°C 79% 2.0 mph SE3.2 kmh SE 4.5 mph7.2 kmh 30.16 in1021.3 mb 0.00 in0.0 mm 0.00 in0.0 mm 0.00 in0.0 mm
02:59 AM 61.7°F16.5°C 55.0°F12.8°C 79% 2.7 mph SE4.3 kmh SE 3.4 mph5.5 kmh 30.16 in1021.3 mb 0.00 in0.0 mm 0.00 in0.0 mm 0.00 in0.0 mm
02:57 AM 61.7°F16.5°C 55.0°F12.8°C 79% 2.2 mph SE3.5 kmh SE 2.7 mph4.3 kmh 30.16 in1021.3 mb 0.00 in0.0 mm 0.00 in0.0 mm 0.00 in0.0 mm
02:54 AM 61.5°F16.4°C 54.9°F12.7°C 79% 2.2 mph SE3.5 kmh SE 2.9 mph4.7 kmh 30.16 in1021.3 mb 0.00 in0.0 mm 0.00 in0.0 mm 0.00 in0.0 mm
02:52 AM 61.5°F16.4°C 54.9°F12.7°C 79% 2.5 mph SE4.0 kmh SE 3.1 mph5.0 kmh 30.16 in1021.3 mb 0.00 in0.0 mm 0.00 in0.0 mm 0.00 in0.0 mm
02:50 AM 61.5°F16.4°C 54.9°F12.7°C 79% 2.5 mph SE4.0 kmh SE 3.6 mph5.8 kmh 30.16 in1021.3 mb 0.00 in0.0 mm 0.00 in0.0 mm 0.00 in0.0 mm
02:47 AM 61.3°F16.3°C 54.9°F12.7°C 79% 1.8 mph SE2.9 kmh SE 2.5 mph4.0 kmh 30.16 in1021.3 mb 0.00 in0.0 mm 0.00 in0.0 mm 0.00 in0.0 mm
02:45 AM 61.3°F16.3°C 54.9°F12.7°C 79% 1.8 mph SE2.9 kmh SE 2.2 mph3.5 kmh 30.16 in1021.3 mb 0.00 in0.0 mm 0.00 in0.0 mm 0.00 in0.0 mm
02:43 AM 61.3°F16.3°C 54.9°F12.7°C 79% 2.2 mph SSE3.5 kmh SSE 3.6 mph5.8 kmh 30.15 in1021.0 mb 0.00 in0.0 mm 0.00 in0.0 mm 0.00 in0.0 mm
02:41 AM 61.5°F16.4°C 54.9°F12.7°C 79% 2.5 mph SE4.0 kmh SE 3.8 mph6.1 kmh 30.16 in1021.3 mb 0.00 in0.0 mm 0.00 in0.0 mm 0.00 in0.0 mm
02:38 AM 61.5°F16.4°C 54.7°F12.6°C 78% 2.2 mph SE3.5 kmh SE 2.7 mph4.3 kmh 30.15 in1021.0 mb 0.00 in0.0 mm 0.00 in0.0 mm 0.00 in0.0 mm
02:36 AM 61.5°F16.4°C 54.7°F12.6°C 78% 2.2 mph SE3.5 kmh SE 3.1 mph5.0 kmh 30.16 in1021.3 mb 0.00 in0.0 mm 0.00 in0.0 mm 0.00 in0.0 mm
02:34 AM 61.5°F16.4°C 54.7°F12.6°C 78% 2.5 mph SSE4.0 kmh SSE 2.7 mph4.3 kmh 30.16 in1021.3 mb 0.00 in0.0 mm 0.00 in0.0 mm 0.00 in0.0 mm
02:32 AM 61.5°F16.4°C 54.7°F12.6°C 78% 2.2 mph SSE3.5 kmh SSE 3.1 mph5.0 kmh 30.16 in1021.3 mb 0.00 in0.0 mm 0.00 in0.0 mm 0.00 in0.0 mm
02:29 AM 61.7°F16.5°C 54.5°F12.5°C 77% 2.0 mph SE3.2 kmh SE 3.6 mph5.8 kmh 30.16 in1021.3 mb 0.00 in0.0 mm 0.00 in0.0 mm 0.00 in0.0 mm
02:27 AM 61.9°F16.6°C 54.7°F12.6°C 77% 1.8 mph SE2.9 kmh SE 2.5 mph4.0 kmh 30.16 in1021.3 mb 0.00 in0.0 mm 0.00 in0.0 mm 0.00 in0.0 mm
02:25 AM 62.1°F16.7°C 54.7°F12.6°C 77% 1.8 mph SE2.9 kmh SE 2.9 mph4.7 kmh 30.16 in1021.3 mb 0.00 in0.0 mm 0.00 in0.0 mm 0.00 in0.0 mm
02:23 AM 62.1°F16.7°C 54.7°F12.6°C 77% 1.6 mph ESE2.6 kmh ESE 2.0 mph3.2 kmh 30.16 in1021.3 mb 0.00 in0.0 mm 0.00 in0.0 mm 0.00 in0.0 mm
02:21 AM 62.2°F16.8°C 54.9°F12.7°C 77% 1.1 mph SE1.8 kmh SE 2.0 mph3.2 kmh 30.16 in1021.3 mb 0.00 in0.0 mm 0.00 in0.0 mm 0.00 in0.0 mm
02:18 AM 62.2°F16.8°C 54.9°F12.7°C 77% 1.3 mph SE2.1 kmh SE 1.8 mph2.9 kmh 30.16 in1021.3 mb 0.00 in0.0 mm 0.00 in0.0 mm 0.00 in0.0 mm
02:16 AM 62.2°F16.8°C 54.9°F12.7°C 77% 1.3 mph SE2.1 kmh SE 1.6 mph2.6 kmh 30.16 in1021.3 mb 0.00 in0.0 mm 0.00 in0.0 mm 0.00 in0.0 mm
02:14 AM 62.2°F16.8°C 54.9°F12.7°C 77% 1.6 mph SSE2.6 kmh SSE 1.8 mph2.9 kmh 30.16 in1021.3 mb 0.00 in0.0 mm 0.00 in0.0 mm 0.00 in0.0 mm
02:12 AM 62.2°F16.8°C 54.9°F12.7°C 77% 1.6 mph SSE2.6 kmh SSE 1.8 mph2.9 kmh 30.16 in1021.3 mb 0.00 in0.0 mm 0.00 in0.0 mm 0.00 in0.0 mm
02:10 AM 62.2°F16.8°C 54.9°F12.7°C 77% 1.6 mph SSE2.6 kmh SSE 2.5 mph4.0 kmh 30.16 in1021.3 mb 0.00 in0.0 mm 0.00 in0.0 mm 0.00 in0.0 mm
02:07 AM 62.2°F16.8°C 54.9°F12.7°C 77% 0.9 mph SE1.4 kmh SE 1.6 mph2.6 kmh 30.16 in1021.3 mb 0.00 in0.0 mm 0.00 in0.0 mm 0.00 in0.0 mm
02:05 AM 62.2°F16.8°C 54.9°F12.7°C 77% 1.1 mph ESE1.8 kmh ESE -- 30.16 in1021.3 mb 0.00 in0.0 mm 0.00 in0.0 mm 0.00 in0.0 mm
01:58 AM 62.2°F16.8°C 54.9°F12.7°C 77% 1.8 mph SE2.9 kmh SE 2.5 mph4.0 kmh 30.16 in1021.3 mb 0.00 in0.0 mm 0.00 in0.0 mm 0.00 in0.0 mm
01:55 AM 62.2°F16.8°C 54.9°F12.7°C 77% 2.2 mph SE3.5 kmh SE 3.8 mph6.1 kmh 30.16 in1021.3 mb 0.00 in0.0 mm 0.00 in0.0 mm 0.00 in0.0 mm
01:53 AM 62.2°F16.8°C 54.9°F12.7°C 77% 2.0 mph SE3.2 kmh SE 2.5 mph4.0 kmh 30.16 in1021.3 mb 0.00 in0.0 mm 0.00 in0.0 mm 0.00 in0.0 mm
01:51 AM 62.2°F16.8°C 54.9°F12.7°C 77% 2.2 mph ESE3.5 kmh ESE 2.9 mph4.7 kmh 30.16 in1021.3 mb 0.00 in0.0 mm 0.00 in0.0 mm 0.00 in0.0 mm
01:49 AM 62.2°F16.8°C 54.5°F12.5°C 76% 2.2 mph SSE3.5 kmh SSE 2.9 mph4.7 kmh 30.16 in1021.3 mb 0.00 in0.0 mm 0.00 in0.0 mm 0.00 in0.0 mm
01:47 AM 62.2°F16.8°C 54.5°F12.5°C 76% 2.5 mph SE4.0 kmh SE 5.1 mph8.2 kmh 30.16 in1021.3 mb 0.00 in0.0 mm 0.00 in0.0 mm 0.00 in0.0 mm
01:44 AM 62.2°F16.8°C 54.5°F12.5°C 76% 1.8 mph SE2.9 kmh SE 5.4 mph8.7 kmh 30.16 in1021.3 mb 0.00 in0.0 mm 0.00 in0.0 mm 0.00 in0.0 mm
01:42 AM 62.4°F16.9°C 54.7°F12.6°C 76% 0.4 mph SSE0.6 kmh SSE 0.7 mph1.1 kmh 30.16 in1021.3 mb 0.00 in0.0 mm 0.00 in0.0 mm 0.00 in0.0 mm
01:40 AM 62.4°F16.9°C 54.7°F12.6°C 76% 0.7 mph SSE1.1 kmh SSE 2.7 mph4.3 kmh 30.16 in1021.3 mb 0.00 in0.0 mm 0.00 in0.0 mm 0.00 in0.0 mm
01:38 AM 62.8°F17.1°C 55.0°F12.8°C 76% 0.4 mph ESE0.6 kmh ESE -- 30.16 in1021.3 mb 0.00 in0.0 mm 0.00 in0.0 mm 0.00 in0.0 mm
01:35 AM 62.8°F17.1°C 55.0°F12.8°C 76% 0.9 mph SSE1.4 kmh SSE 0.9 mph1.4 kmh 30.16 in1021.3 mb 0.00 in0.0 mm 0.00 in0.0 mm 0.00 in0.0 mm
01:33 AM 62.8°F17.1°C 55.0°F12.8°C 76% 1.3 mph SSE2.1 kmh SSE 1.6 mph2.6 kmh 30.16 in1021.3 mb 0.00 in0.0 mm 0.00 in0.0 mm 0.00 in0.0 mm
01:31 AM 62.4°F16.9°C 54.7°F12.6°C 76% 1.3 mph SE2.1 kmh SE 2.0 mph3.2 kmh 30.16 in1021.3 mb 0.00 in0.0 mm 0.00 in0.0 mm 0.00 in0.0 mm
01:28 AM 62.4°F16.9°C 54.7°F12.6°C 76% 1.8 mph SSE2.9 kmh SSE 2.2 mph3.5 kmh 30.16 in1021.3 mb 0.00 in0.0 mm 0.00 in0.0 mm 0.00 in0.0 mm
01:26 AM 62.4°F16.9°C 54.7°F12.6°C 76% 2.5 mph SE4.0 kmh SE 3.8 mph6.1 kmh 30.16 in1021.3 mb 0.00 in0.0 mm 0.00 in0.0 mm 0.00 in0.0 mm
01:24 AM 62.6°F17.0°C 54.5°F12.5°C 75% 2.0 mph ESE3.2 kmh ESE 2.9 mph4.7 kmh 30.16 in1021.3 mb 0.00 in0.0 mm 0.00 in0.0 mm 0.00 in0.0 mm
01:22 AM 62.6°F17.0°C 54.9°F12.7°C 76% 2.0 mph SE3.2 kmh SE 3.6 mph5.8 kmh 30.16 in1021.3 mb 0.00 in0.0 mm 0.00 in0.0 mm 0.00 in0.0 mm
01:19 AM 62.4°F16.9°C 54.3°F12.4°C 75% 1.6 mph SE2.6 kmh SE 2.5 mph4.0 kmh 30.16 in1021.3 mb 0.00 in0.0 mm 0.00 in0.0 mm 0.00 in0.0 mm
01:17 AM 62.6°F17.0°C 54.9°F12.7°C 76% 1.8 mph SE2.9 kmh SE 3.6 mph5.8 kmh 30.16 in1021.3 mb 0.00 in0.0 mm 0.00 in0.0 mm 0.00 in0.0 mm
01:15 AM 62.6°F17.0°C 54.9°F12.7°C 76% 2.0 mph SE3.2 kmh SE 2.5 mph4.0 kmh 30.16 in1021.3 mb 0.00 in0.0 mm 0.00 in0.0 mm 0.00 in0.0 mm
01:13 AM 62.6°F17.0°C 54.5°F12.5°C 75% 2.0 mph SSE3.2 kmh SSE 3.4 mph5.5 kmh 30.16 in1021.3 mb 0.00 in0.0 mm 0.00 in0.0 mm 0.00 in0.0 mm
01:11 AM 62.4°F16.9°C 54.3°F12.4°C 75% 1.8 mph S2.9 kmh S 2.0 mph3.2 kmh 30.16 in1021.3 mb 0.00 in0.0 mm 0.00 in0.0 mm 0.00 in0.0 mm
01:08 AM 62.8°F17.1°C 54.7°F12.6°C 75% 2.5 mph ESE4.0 kmh ESE 3.4 mph5.5 kmh 30.16 in1021.3 mb 0.00 in0.0 mm 0.00 in0.0 mm 0.00 in0.0 mm
01:06 AM 62.8°F17.1°C 54.7°F12.6°C 75% 2.2 mph SSE3.5 kmh SSE 3.6 mph5.8 kmh 30.16 in1021.3 mb 0.00 in0.0 mm 0.00 in0.0 mm 0.00 in0.0 mm
01:04 AM 62.8°F17.1°C 54.7°F12.6°C 75% 1.8 mph SE2.9 kmh SE 3.1 mph5.0 kmh 30.16 in1021.3 mb 0.00 in0.0 mm 0.00 in0.0 mm 0.00 in0.0 mm
01:02 AM 63.0°F17.2°C 54.9°F12.7°C 75% 1.8 mph SE2.9 kmh SE 3.1 mph5.0 kmh 30.16 in1021.3 mb 0.00 in0.0 mm 0.00 in0.0 mm 0.00 in0.0 mm
01:00 AM 63.0°F17.2°C 54.9°F12.7°C 75% 1.1 mph SE1.8 kmh SE 1.8 mph2.9 kmh 30.16 in1021.3 mb 0.00 in0.0 mm 0.00 in0.0 mm 0.00 in0.0 mm
12:57 AM 63.0°F17.2°C 54.9°F12.7°C 75% 1.1 mph SE1.8 kmh SE 1.3 mph2.1 kmh 30.16 in1021.3 mb 0.00 in0.0 mm 0.00 in0.0 mm 0.00 in0.0 mm
12:55 AM 63.0°F17.2°C 54.9°F12.7°C 75% 1.6 mph SE2.6 kmh SE 1.6 mph2.6 kmh 30.16 in1021.3 mb 0.00 in0.0 mm 0.00 in0.0 mm 0.00 in0.0 mm
12:53 AM 63.0°F17.2°C 54.9°F12.7°C 75% 1.8 mph SSE2.9 kmh SSE 2.2 mph3.5 kmh 30.16 in1021.3 mb 0.00 in0.0 mm 0.00 in0.0 mm 0.00 in0.0 mm
12:51 AM 63.0°F17.2°C 54.9°F12.7°C 75% 2.0 mph SE3.2 kmh SE 2.5 mph4.0 kmh 30.16 in1021.3 mb 0.00 in0.0 mm 0.00 in0.0 mm 0.00 in0.0 mm
12:48 AM 63.0°F17.2°C 54.9°F12.7°C 75% 1.8 mph SE2.9 kmh SE 3.6 mph5.8 kmh 30.15 in1021.0 mb 0.00 in0.0 mm 0.00 in0.0 mm 0.00 in0.0 mm
12:46 AM 63.0°F17.2°C 54.9°F12.7°C 75% 1.1 mph ESE1.8 kmh ESE 2.0 mph3.2 kmh 30.16 in1021.3 mb 0.00 in0.0 mm 0.00 in0.0 mm 0.00 in0.0 mm
12:44 AM 62.8°F17.1°C 54.7°F12.6°C 75% 1.8 mph SE2.9 kmh SE 3.1 mph5.0 kmh 30.16 in1021.3 mb 0.00 in0.0 mm 0.00 in0.0 mm 0.00 in0.0 mm
12:42 AM 62.8°F17.1°C 54.7°F12.6°C 75% 2.0 mph SE3.2 kmh SE 2.2 mph3.5 kmh 30.16 in1021.3 mb 0.00 in0.0 mm 0.00 in0.0 mm 0.00 in0.0 mm
12:39 AM 62.8°F17.1°C 54.7°F12.6°C 75% 2.0 mph SE3.2 kmh SE 3.6 mph5.8 kmh 30.16 in1021.3 mb 0.00 in0.0 mm 0.00 in0.0 mm 0.00 in0.0 mm
12:37 AM 62.8°F17.1°C 54.7°F12.6°C 75% 1.3 mph SE2.1 kmh SE 2.0 mph3.2 kmh 30.16 in1021.3 mb 0.00 in0.0 mm 0.00 in0.0 mm 0.00 in0.0 mm
12:35 AM 62.8°F17.1°C 54.7°F12.6°C 75% 1.6 mph SE2.6 kmh SE 2.5 mph4.0 kmh 30.16 in1021.3 mb 0.00 in0.0 mm 0.00 in0.0 mm 0.00 in0.0 mm
12:33 AM 62.8°F17.1°C 54.7°F12.6°C 75% 2.0 mph SSE3.2 kmh SSE 4.0 mph6.4 kmh 30.16 in1021.3 mb 0.00 in0.0 mm 0.00 in0.0 mm 0.00 in0.0 mm
12:30 AM 62.8°F17.1°C 54.7°F12.6°C 75% 1.8 mph SE2.9 kmh SE 3.1 mph5.0 kmh 30.16 in1021.3 mb 0.00 in0.0 mm 0.00 in0.0 mm 0.00 in0.0 mm
12:28 AM 62.6°F17.0°C 54.5°F12.5°C 75% 1.1 mph SSE1.8 kmh SSE 1.3 mph2.1 kmh 30.16 in1021.3 mb 0.00 in0.0 mm 0.00 in0.0 mm 0.00 in0.0 mm
12:26 AM 62.2°F16.8°C 54.1°F12.3°C 75% 1.1 mph SSE1.8 kmh SSE 2.0 mph3.2 kmh 30.16 in1021.3 mb 0.00 in0.0 mm 0.00 in0.0 mm 0.00 in0.0 mm
12:24 AM 62.1°F16.7°C 54.0°F12.2°C 75% 1.8 mph SE2.9 kmh SE 2.5 mph4.0 kmh 30.16 in1021.3 mb 0.00 in0.0 mm 0.00 in0.0 mm 0.00 in0.0 mm
12:21 AM 61.9°F16.6°C 53.4°F11.9°C 74% 1.3 mph SE2.1 kmh SE 2.2 mph3.5 kmh 30.16 in1021.3 mb 0.00 in0.0 mm 0.00 in0.0 mm 0.00 in0.0 mm
12:19 AM 61.9°F16.6°C 53.4°F11.9°C 74% 1.3 mph SE2.1 kmh SE 1.3 mph2.1 kmh 30.16 in1021.3 mb 0.00 in0.0 mm 0.00 in0.0 mm 0.00 in0.0 mm
12:17 AM 62.1°F16.7°C 53.6°F12.0°C 74% 2.5 mph SE4.0 kmh SE 4.0 mph6.4 kmh 30.16 in1021.3 mb 0.00 in0.0 mm 0.00 in0.0 mm 0.00 in0.0 mm
12:15 AM 62.1°F16.7°C 53.6°F12.0°C 74% 2.0 mph SE3.2 kmh SE 2.5 mph4.0 kmh 30.16 in1021.3 mb 0.00 in0.0 mm 0.00 in0.0 mm 0.00 in0.0 mm
12:13 AM 62.1°F16.7°C 53.6°F12.0°C 74% 2.5 mph SSE4.0 kmh SSE 4.0 mph6.4 kmh 30.16 in1021.3 mb 0.00 in0.0 mm 0.00 in0.0 mm 0.00 in0.0 mm
12:11 AM 62.2°F16.8°C 53.8°F12.1°C 74% 2.7 mph ESE4.3 kmh ESE 2.9 mph4.7 kmh 30.16 in1021.3 mb 0.00 in0.0 mm 0.00 in0.0 mm 0.00 in0.0 mm
12:09 AM 62.4°F16.9°C 54.0°F12.2°C 74% 2.9 mph SE4.7 kmh SE 5.6 mph9.0 kmh 30.16 in1021.3 mb 0.00 in0.0 mm 0.00 in0.0 mm 0.00 in0.0 mm
12:07 AM 62.4°F16.9°C 54.0°F12.2°C 74% 2.5 mph SSE4.0 kmh SSE 3.4 mph5.5 kmh 30.16 in1021.3 mb 0.00 in0.0 mm 0.00 in0.0 mm 0.00 in0.0 mm
12:04 AM 62.4°F16.9°C 54.0°F12.2°C 74% 2.7 mph ESE4.3 kmh ESE 4.0 mph6.4 kmh 30.16 in1021.3 mb 0.00 in0.0 mm 0.00 in0.0 mm 0.00 in0.0 mm
12:02 AM 62.4°F16.9°C 54.0°F12.2°C 74% 2.5 mph ESE4.0 kmh ESE 4.0 mph6.4 kmh 30.16 in1021.3 mb 0.00 in0.0 mm 0.00 in0.0 mm 0.00 in0.0 mm
12:00 AM 62.4°F16.9°C 54.0°F12.2°C 74% 2.0 mph ESE3.2 kmh ESE 3.4 mph5.5 kmh 30.16 in1021.3 mb 0.00 in0.0 mm 0.00 in0.0 mm 0.00 in0.0 mm